• Join FlightAware (Why Join?)
  • Login
  • US Flag 
12:57AM EDT


 

Airport Tracker/Info


-or-


 

Live Flight TrackerFlight Track Log ✈ UAL139 ✈ 22-Oct-2013 ✈ KDEN - RJAA / NRT

Flight Track Log - Related Links

Times and Time Zones

All times are in EDT time to prevent confusion due to time zone crossing. See the UAL139 flight status page for this flight to view local times or setup timezone preferences in your user account.

Time Position Orientation Groundspeed Altitude Reporting Facility
EDT Latitude Longitude Course Direction KTS MPH feet Rate Location/Type
02:32PM 39.8410 -104.7260 180° South 200 230 5,400  Level FlightAware
02:32PM 39.8410 -104.7520 270° West 201 231 6,300 2,220 Climbing FlightAware
02:32PM 39.8430 -104.7620 285° West 205 236 6,500 1,500 Climbing FlightAware
02:32PM 39.8440 -104.7660 288° West 208 239 6,600 960 Climbing FlightAware
02:32PM 39.8470 -104.7740 296° West 216 249 6,700 720 Climbing FlightAware
02:32PM 39.8570 -104.7930 304° West 242 278 6,900 1,380 Climbing FlightAware
02:33PM 39.8690 -104.8160 304° West 258 297 7,500 2,160 Climbing FlightAware
02:33PM 39.8820 -104.8430 302° West 269 310 8,300 2,400 Climbing FlightAware
02:34PM 39.9000 -104.8770 305° West 281 323 9,300 2,580 Climbing FlightAware
02:34PM 39.9070 -104.8850 319° Northwest 282 325 9,700 3,000 Climbing FlightAware
02:34PM 39.9220 -104.8950 333° Northwest 289 333 10,300 2,220 Climbing FlightAware
02:34PM 39.9370 -104.8980 351° North 302 348 10,600 1,200 Climbing FlightAware
02:35PM 39.9759 -104.9048 352° North 338 389 11,200 2,040 Climbing FlightAware ADS-B (KEIK)
02:35PM 40.0288 -104.9155 351° North 341 392 12,700 3,360 Climbing FlightAware ADS-B (KEIK)
02:36PM 40.0730 -104.9246 351° North 327 376 14,600 2,880 Climbing FlightAware ADS-B (KEIK)
02:36PM 40.1331 -104.9371 351° North 339 390 16,200 2,400 Climbing FlightAware ADS-B (KEIK)
02:37PM 40.1855 -104.9479 351° North 341 392 17,500 2,160 Climbing FlightAware ADS-B (KEIK)
02:37PM 40.2345 -104.9582 351° North 350 403 18,500 2,160 Climbing FlightAware ADS-B (KEIK)
02:38PM 40.2460 -104.9606 351° North 353 406 20,000 2,160 Climbing FlightAware ADS-B (KANK)
02:38PM 40.3466 -104.9812 351° North 361 415 20,900 1,860 Climbing FlightAware ADS-B (KANK)
02:39PM 40.3751 -104.9871 351° North 368 423 21,900 1,860 Climbing FlightAware ADS-B (KANK)
02:39PM 40.4501 -105.0026 351° North 374 430 22,900 1,680 Climbing FlightAware ADS-B (KEIK)
02:40PM 40.5152 -105.0159 351° North 382 440 24,000 1,680 Climbing FlightAware ADS-B (KEIK)
02:41PM 40.5760 -105.0285 351° North 388 447 24,900 1,560 Climbing FlightAware ADS-B (KEIK)
02:41PM 40.6103 -105.0358 351° North 394 453 25,600 1,380 Climbing FlightAware ADS-B (KEIK)
02:42PM 40.6838 -105.0511 351° North 404 465 26,300 1,560 Climbing FlightAware ADS-B (KEIK)
02:42PM 40.4917 -105.0111 171° South 405 466 27,300 1,560 Climbing FlightAware ADS-B (KANK)
02:43PM 40.7876 -105.0942 348° North 404 465 27,900 1,380 Climbing FlightAware ADS-B (KEIK)
02:43PM 40.7876 -105.0942 348° North 409 471 28,800 1,320 Climbing FlightAware ADS-B (KEIK)
02:44PM 40.8813 -105.1993 320° Northwest 414 476 29,500 1,320 Climbing FlightAware ADS-B (KEIK)
02:44PM 40.9372 -105.2755 314° West 421 484 30,300 1,140 Climbing FlightAware ADS-B (KEIK)
02:45PM 40.9840 -105.3790 301° West 428 493 31,100 960 Climbing FlightAware
02:46PM 41.0080 -105.4330 301° West 433 498 31,500 900 Climbing FlightAware
02:46PM 41.0490 -105.5250 301° West 441 507 32,100 900 Climbing FlightAware
02:47PM 41.0840 -105.6030 301° West 445 512 32,600 900 Climbing FlightAware
02:47PM 41.1160 -105.6760 300° West 449 517 33,100 960 Climbing FlightAware
02:48PM 41.1570 -105.7690 300° West 452 520 33,700 840 Climbing FlightAware
02:49PM 41.2020 -105.8720 300° West 457 526 34,300 1,020 Climbing FlightAware
02:49PM 41.2430 -105.9580 302° West 451 519 35,100 1,260 Climbing FlightAware
02:50PM 41.2740 -106.0230 302° West 448 516 35,700 900 Climbing FlightAware
02:51PM 41.3260 -106.1340 302° West 449 517 36,300 720 Climbing FlightAware
02:51PM 41.3630 -106.2130 302° West 451 519 36,700 600 Climbing FlightAware
02:52PM 41.4010 -106.2950 302° West 453 521 37,000 420 Climbing FlightAware
02:52PM 41.4340 -106.3670 301° West 457 526 37,200 360 Climbing FlightAware
02:53PM 41.4740 -106.4520 302° West 459 528 37,400 480 Climbing FlightAware
02:54PM 41.5310 -106.5780 301° West 460 529 37,900 300 Climbing FlightAware
02:54PM 41.5690 -106.6610 301° West 460 529 37,900 60 Level FlightAware
02:55PM 41.6070 -106.7430 302° West 456 525 38,000 60 Climbing FlightAware
02:55PM 41.6370 -106.8100 301° West 456 525 38,000  Level FlightAware
02:56PM 41.6910 -106.9260 302° West 456 525 38,000  Level FlightAware
02:57PM 41.7300 -107.0120 301° West 457 526 38,000  Level FlightAware
02:57PM 41.7600 -107.0790 301° West 457 526 38,000  Level FlightAware
02:58PM 41.7940 -107.1560 301° West 457 526 38,000  Level FlightAware
02:58PM 41.8430 -107.2640 301° West 459 528 38,000  Level FlightAware
02:59PM 41.8780 -107.3410 301° West 459 528 38,000  Level FlightAware
03:00PM 41.9110 -107.4160 301° West 459 528 38,000  Level FlightAware
03:00PM 41.9460 -107.4930 301° West 459 528 38,000  Level FlightAware
03:01PM 41.9790 -107.5680 301° West 459 528 38,000  Level FlightAware
03:01PM 42.0120 -107.6430 301° West 459 528 38,000  Level FlightAware
03:02PM 42.0470 -107.7200 301° West 459 528 38,000  Level FlightAware
03:03PM 42.0780 -107.7900 301° West 459 528 38,000  Level FlightAware
03:03PM 42.1130 -107.8680 301° West 459 528 38,000  Level FlightAware
03:04PM 42.1460 -107.9430 301° West 459 528 38,000  Level FlightAware
03:04PM 42.1810 -108.0200 302° West 459 528 38,000  Level FlightAware
03:05PM 42.2140 -108.0950 301° West 459 528 38,000  Level FlightAware
03:06PM 42.2480 -108.1700 302° West 459 528 38,000  Level FlightAware
03:06PM 42.2810 -108.2460 300° West 459 528 38,000  Level FlightAware
03:07PM 42.3150 -108.3210 302° West 459 528 38,000  Level FlightAware
03:07PM 42.3490 -108.3980 301° West 459 528 38,000  Level FlightAware
03:08PM 42.3820 -108.4740 300° West 459 528 38,000  Level FlightAware
03:09PM 42.5547 -108.8942 300° West 461 531 38,000  Level Salt Lake Center
03:10PM 42.6261 -109.0622 300° West 463 533 38,000  Level Salt Lake Center
03:12PM 42.6867 -109.2072 300° West 462 532 38,000  Level Salt Lake Center
03:13PM 42.7583 -109.3742 300° West 460 529 38,000  Level Salt Lake Center
03:14PM 42.8181 -109.5219 299° West 465 535 38,000  Level Salt Lake Center
03:15PM 42.8872 -109.6897 299° West 459 528 38,000  Level Salt Lake Center
03:16PM 42.9478 -109.8358 300° West 462 532 38,000  Level Salt Lake Center
03:17PM 43.0106 -109.9881 299° West 460 529 38,000  Level Salt Lake Center
03:18PM 43.0811 -110.1592 299° West 461 531 38,000  Level Salt Lake Center
03:19PM 43.1411 -110.3064 299° West 462 532 38,000  Level Salt Lake Center
03:20PM 43.2100 -110.4806 299° West 465 535 38,000  Level Salt Lake Center
03:21PM 43.2706 -110.6278 300° West 463 533 38,000  Level Salt Lake Center
03:22PM 43.3306 -110.7772 299° West 465 535 38,000  Level Salt Lake Center
03:23PM 43.4003 -110.9517 299° West 466 536 38,000  Level Salt Lake Center
03:24PM 43.4592 -111.1011 299° West 463 533 38,000  Level Salt Lake Center
03:25PM 43.5278 -111.2767 298° West 466 536 38,000  Level Salt Lake Center
03:26PM 43.5867 -111.4281 298° West 466 536 38,000  Level Salt Lake Center
03:27PM 43.6556 -111.6044 298° West 466 536 38,000  Level Salt Lake Center
03:33PM 43.9946 -112.4930 298° West 470 541 38,000  Level FlightAware ADS-B
03:33PM 44.0384 -112.6100 298° West 471 542 38,000  Level FlightAware ADS-B
03:37PM 44.2207 -113.1104 297° West  Level FlightAware Approximate
03:38PM 44.2761 -113.2642 297° West  Level FlightAware Approximate
03:39PM 44.3313 -113.4183 297° West  Level FlightAware Approximate
03:40PM 44.3863 -113.5727 297° West  Level FlightAware Approximate
03:41PM 44.4411 -113.7273 296° West  Level FlightAware Approximate
03:41PM 44.4930 -113.8550 296° West 474 545 38,000  Level FlightAware
03:41PM 44.5240 -113.9440 296° West 474 545 38,000  Level FlightAware
03:42PM 44.5610 -114.0470 297° West 476 548 38,000  Level FlightAware
03:43PM 44.5930 -114.1370 297° West 476 548 38,000  Level FlightAware
03:43PM 44.6270 -114.2350 296° West 476 548 38,000  Level FlightAware
03:44PM 44.6610 -114.3320 296° West 476 548 38,000  Level FlightAware
03:44PM 44.6910 -114.4200 296° West 476 548 38,000  Level FlightAware
03:45PM 44.7270 -114.5190 297° West 477 549 38,000  Level FlightAware
03:46PM 44.7570 -114.6070 296° West 477 549 38,000  Level FlightAware
03:46PM 44.7860 -114.6900 296° West 478 550 38,000  Level FlightAware
03:47PM 44.8310 -114.8190 296° West 478 550 38,000  Level FlightAware
03:47PM 44.8620 -114.9100 296° West 478 550 38,000  Level FlightAware
03:48PM 44.8950 -115.0090 295° West 478 550 38,000  Level FlightAware
03:48PM 44.9260 -115.0990 296° West 479 551 38,000  Level FlightAware
03:49PM 44.9610 -115.2010 296° West 479 551 38,000  Level FlightAware
03:50PM 44.9960 -115.3040 296° West 480 552 38,000  Level FlightAware
03:50PM 45.0300 -115.4040 296° West 480 552 38,000  Level FlightAware
03:51PM 45.0570 -115.4840 296° West 479 551 38,000  Level FlightAware
03:51PM 45.0870 -115.5750 295° West 479 551 38,000  Level FlightAware
03:52PM 45.1160 -115.6630 295° West 480 552 38,000  Level FlightAware
03:52PM 45.1510 -115.7660 296° West 481 554 38,000  Level FlightAware
03:53PM 45.1920 -115.8920 295° West 482 555 38,000  Level FlightAware
03:54PM 45.2240 -115.9890 295° West 480 552 38,000  Level FlightAware
03:54PM 45.2590 -116.0940 295° West 480 552 38,000  Level FlightAware
03:55PM 45.2850 -116.1720 295° West 480 552 38,000  Level FlightAware
03:55PM 45.3170 -116.2710 295° West 481 554 38,000  Level FlightAware
03:56PM 45.3490 -116.3720 294° West 482 555 38,000  Level FlightAware
03:56PM 45.3760 -116.4530 295° West 483 556 38,000  Level FlightAware
03:57PM 45.4100 -116.5570 295° West 483 556 38,000  Level FlightAware
03:58PM 45.4440 -116.6640 294° West 482 555 38,000  Level FlightAware
03:58PM 45.4760 -116.7650 294° West 482 555 38,000  Level FlightAware
03:59PM 45.5070 -116.8620 295° West 481 554 38,000  Level FlightAware
03:59PM 45.5400 -116.9660 294° West 481 554 38,000  Level FlightAware
04:00PM 45.5670 -117.0510 294° West 481 554 38,000  Level FlightAware
04:00PM 45.6000 -117.1570 294° West 481 554 38,000  Level FlightAware
04:01PM 45.6430 -117.2910 295° West 482 555 38,000  Level FlightAware
04:02PM 45.6710 -117.3810 294° West 482 555 38,000  Level FlightAware
04:02PM 45.7040 -117.4870 294° West 481 554 38,000  Level FlightAware
04:03PM 45.7340 -117.5830 294° West 482 555 38,000  Level FlightAware
04:03PM 45.7700 -117.7010 294° West 481 554 38,000  Level FlightAware
04:04PM 45.7990 -117.7970 293° West 482 555 38,000  Level FlightAware
04:05PM 45.8300 -117.8980 294° West 482 555 38,000  Level FlightAware
04:05PM 45.8630 -118.0060 294° West 481 554 38,000  Level FlightAware
04:06PM 45.8940 -118.1070 294° West 481 554 38,000  Level FlightAware
04:06PM 45.9250 -118.2090 294° West 482 555 38,000  Level FlightAware
04:07PM 45.9590 -118.3220 293° West 483 556 38,000  Level FlightAware
04:07PM 45.9840 -118.4070 293° West 483 556 38,000  Level FlightAware
04:08PM 46.0150 -118.5090 294° West 483 556 38,000  Level FlightAware
04:09PM 46.0460 -118.6120 293° West 483 556 38,000  Level FlightAware
04:09PM 46.0840 -118.7400 293° West 483 556 38,000  Level FlightAware
04:10PM 46.1140 -118.8440 293° West 484 557 38,000  Level FlightAware
04:11PM 46.1460 -118.9530 293° West 484 557 38,000  Level FlightAware
04:11PM 46.1660 -119.0190 294° West 484 557 38,000  Level FlightAware
04:12PM 46.2070 -119.1610 293° West 486 559 38,000  Level FlightAware
04:12PM 46.2450 -119.2920 293° West 486 559 38,000  Level FlightAware
04:13PM 46.2720 -119.3860 293° West 486 559 38,000  Level FlightAware
04:14PM 46.3020 -119.4900 293° West 486 559 38,000  Level FlightAware
04:14PM 46.3320 -119.5950 293° West 487 560 38,000  Level FlightAware
04:15PM 46.3630 -119.7030 293° West 487 560 38,000  Level FlightAware
04:15PM 46.3950 -119.8170 292° West 487 560 38,000  Level FlightAware
04:16PM 46.4250 -119.9220 293° West 485 558 38,000  Level FlightAware
04:17PM 46.4540 -120.0250 292° West 486 559 38,000  Level FlightAware
04:17PM 46.4601 -120.0480 291° West 487 560 38,000  Level FlightAware ADS-B
04:17PM 46.4854 -120.1390 292° West 487 560 38,000  Level FlightAware ADS-B
04:18PM 46.5115 -120.2320 292° West 486 559 38,000  Level FlightAware ADS-B
04:18PM 46.5368 -120.3240 292° West 486 559 38,000  Level FlightAware ADS-B
04:19PM 46.5548 -120.3880 292° West 486 559 38,000  Level FlightAware ADS-B
04:19PM 46.5780 -120.4550 297° West 484 557 38,000  Level FlightAware ADS-B
04:19PM 46.6074 -120.5220 303° West 484 557 38,000  Level FlightAware ADS-B
04:20PM 46.6462 -120.6030 305° West 485 558 38,000  Level FlightAware ADS-B
04:20PM 46.6844 -120.6840 305° West 485 558 38,000  Level FlightAware ADS-B
04:21PM 46.7231 -120.7650 305° West 485 558 38,000  Level FlightAware ADS-B
04:21PM 46.7620 -120.8470 305° West 485 558 38,000  Level FlightAware ADS-B
04:22PM 46.8010 -120.9300 304° West 485 558 38,000  Level FlightAware ADS-B
04:22PM 46.8402 -121.0130 305° West 485 558 38,000  Level FlightAware ADS-B
04:23PM 46.8783 -121.0950 304° West 483 556 38,000  Level FlightAware ADS-B
04:23PM 46.8801 -121.0983 309° West 484 557 38,000  Level FlightAware ADS-B (EPKK / KRK)
04:23PM 46.9167 -121.1760 305° West 483 556 38,000  Level FlightAware ADS-B
04:24PM 46.9543 -121.2570 304° West 483 556 38,000  Level FlightAware ADS-B
04:24PM 46.9922 -121.3390 304° West 482 555 38,000  Level FlightAware ADS-B
04:25PM 47.0300 -121.4200 304° West 483 556 38,000  Level FlightAware ADS-B
04:25PM 47.0460 -121.4546 304° West 483 556 38,000  Level FlightAware ADS-B (EPKK / KRK)
04:25PM 47.0690 -121.5040 304° West 483 556 38,000  Level FlightAware ADS-B
04:26PM 47.1068 -121.5860 304° West 484 557 38,000  Level FlightAware ADS-B
04:26PM 47.1443 -121.6680 304° West 485 558 38,000  Level FlightAware ADS-B
04:27PM 47.1613 -121.7048 304° West 485 558 38,000  Level FlightAware ADS-B (CYWH)
04:27PM 47.1818 -121.7500 304° West 486 559 38,000  Level FlightAware ADS-B
04:27PM 47.2060 -121.8027 304° West 486 559 38,000  Level FlightAware ADS-B (EPKK / KRK)
04:27PM 47.2197 -121.8330 304° West 485 558 38,000  Level FlightAware ADS-B
04:28PM 47.2439 -121.8858 304° West 486 559 38,000  Level FlightAware ADS-B (EPKK / KRK)
04:28PM 47.2574 -121.9150 304° West 486 559 38,000  Level FlightAware ADS-B
04:28PM 47.2791 -121.9630 304° West 486 559 38,000  Level FlightAware ADS-B
04:28PM 47.2803 -121.9660 301° West 486 559 38,000  Level FlightAware ADS-B
04:28PM 47.2815 -121.9690 301° West 486 559 38,000  Level FlightAware ADS-B
04:28PM 47.2820 -121.9698 315° West 486 559 38,000  Level FlightAware ADS-B (EPKK / KRK)
04:28PM 47.2831 -121.9720 305° West 486 559 38,000  Level FlightAware ADS-B
04:28PM 47.2843 -121.9750 301° West 486 559 38,000  Level FlightAware ADS-B
04:28PM 47.2855 -121.9770 311° West 486 559 38,000  Level FlightAware ADS-B
04:28PM 47.2865 -121.9800 296° West 486 559 38,000  Level FlightAware ADS-B
04:28PM 47.2883 -121.9840 304° West 486 559 38,000  Level FlightAware ADS-B
04:28PM 47.2890 -121.9850 316° Northwest 486 559 38,000  Level FlightAware ADS-B
04:28PM 47.2908 -121.9890 304° West 486 559 38,000  Level FlightAware ADS-B
04:28PM 47.2930 -121.9940 303° West 487 560 38,000  Level FlightAware ADS-B
04:28PM 47.2943 -121.9970 303° West 487 560 38,000  Level FlightAware ADS-B
04:28PM 47.2955 -121.9990 311° West 487 560 38,000  Level FlightAware ADS-B
04:28PM 47.2967 -122.0020 301° West 487 560 38,000  Level FlightAware ADS-B
04:28PM 47.2980 -122.0050 303° West 487 560 38,000  Level FlightAware ADS-B
04:28PM 47.2995 -122.0080 306° West 486 559 38,000  Level FlightAware ADS-B
04:29PM 47.3008 -122.0110 303° West 487 560 38,000  Level FlightAware ADS-B
04:29PM 47.3017 -122.0130 304° West 486 559 38,000  Level FlightAware ADS-B
04:29PM 47.3030 -122.0160 303° West 487 560 38,000  Level FlightAware ADS-B
04:29PM 47.3045 -122.0190 306° West 486 559 38,000  Level FlightAware ADS-B
04:29PM 47.3057 -122.0220 301° West 486 559 38,000  Level FlightAware ADS-B
04:29PM 47.3069 -122.0250 301° West 486 559 38,000  Level FlightAware ADS-B
04:29PM 47.3080 -122.0270 309° West 487 560 38,000  Level FlightAware ADS-B
04:29PM 47.3092 -122.0300 301° West 487 560 38,000  Level FlightAware ADS-B
04:29PM 47.3114 -122.0350 303° West 487 560 38,000  Level FlightAware ADS-B
04:29PM 47.3127 -122.0370 314° West 487 560 38,000  Level FlightAware ADS-B
04:29PM 47.3144 -122.0410 302° West 487 560 38,000  Level FlightAware ADS-B
04:29PM 47.3152 -122.0430 301° West 487 560 38,000  Level FlightAware ADS-B
04:29PM 47.3169 -122.0470 302° West 487 560 38,000  Level FlightAware ADS-B
04:29PM 47.3187 -122.0510 304° West 487 560 38,000  Level FlightAware ADS-B
04:29PM 47.3199 -122.0530 312° West 487 560 38,000  Level FlightAware ADS-B
04:29PM 47.3207 -122.0550 301° West 487 560 38,000  Level FlightAware ADS-B
04:29PM 47.3216 -122.0570 304° West 487 560 38,000  Level FlightAware ADS-B
04:29PM 47.3229 -122.0600 303° West 487 560 38,000  Level FlightAware ADS-B
04:29PM 47.3242 -122.0630 303° West 487 560 38,000  Level FlightAware ADS-B
04:29PM 47.3254 -122.0650 312° West 487 560 38,000  Level FlightAware ADS-B
04:29PM 47.3269 -122.0690 299° West 487 560 38,000  Level FlightAware ADS-B
04:29PM 47.3281 -122.0710 312° West 487 560 38,000  Level FlightAware ADS-B
04:29PM 47.3294 -122.0740 303° West 487 560 38,000  Level FlightAware ADS-B
04:29PM 47.3306 -122.0770 301° West 487 560 38,000  Level FlightAware ADS-B
04:29PM 47.3316 -122.0790 306° West 487 560 38,000  Level FlightAware ADS-B
04:29PM 47.3329 -122.0820 303° West 487 560 38,000  Level FlightAware ADS-B
04:29PM 47.3341 -122.0850 301° West 487 560 38,000  Level FlightAware ADS-B
04:29PM 47.3356 -122.0880 306° West 487 560 38,000  Level FlightAware ADS-B
04:29PM 47.3366 -122.0900 306° West 487 560 38,000  Level FlightAware ADS-B
04:29PM 47.3403 -122.0980 304° West 487 560 38,000  Level FlightAware ADS-B
04:29PM 47.3421 -122.1020 304° West 487 560 38,000  Level FlightAware ADS-B
04:29PM 47.3426 -122.1030 306° West 487 560 38,000  Level FlightAware ADS-B
04:29PM 47.3403 -122.0984 126° Southeast 487 560 38,000  Level FlightAware ADS-B (EPKK / KRK)
04:29PM 47.3453 -122.1090 305° West 487 560 38,000  Level FlightAware ADS-B
04:29PM 47.3465 -122.1120 301° West 487 560 38,000  Level FlightAware ADS-B
04:29PM 47.3478 -122.1150 303° West 487 560 38,000  Level FlightAware ADS-B
04:29PM 47.3491 -122.1180 303° West 486 559 38,000  Level FlightAware ADS-B
04:29PM 47.3503 -122.1200 312° West 486 559 38,000  Level FlightAware ADS-B
04:29PM 47.3513 -122.1230 296° West 486 559 38,000  Level FlightAware ADS-B
04:29PM 47.3525 -122.1250 312° West 486 559 38,000  Level FlightAware ADS-B
04:29PM 47.3538 -122.1280 303° West 486 559 38,000  Level FlightAware ADS-B
04:29PM 47.3562 -122.1340 301° West 486 559 38,000  Level FlightAware ADS-B
04:29PM 47.3588 -122.1390 308° West 486 559 38,000  Level FlightAware ADS-B
04:29PM 47.3605 -122.1430 302° West 486 559 38,000  Level FlightAware ADS-B
04:29PM 47.3620 -122.1460 306° West 486 559 38,000  Level FlightAware ADS-B
04:29PM 47.3625 -122.1470 306° West 486 559 38,000  Level FlightAware ADS-B
04:29PM 47.3637 -122.1500 301° West 486 559 38,000  Level FlightAware ADS-B
04:29PM 47.3649 -122.1530 301° West 486 559 38,000  Level FlightAware ADS-B
04:29PM 47.3665 -122.1560 308° West 486 559 38,000  Level FlightAware ADS-B
04:29PM 47.3612 -122.1447 124° Southeast 486 559 38,000  Level FlightAware ADS-B (EPKK / KRK)
04:29PM 47.3704 -122.1650 304° West 486 559 38,000  Level FlightAware ADS-B
04:29PM 47.3719 -122.1680 306° West 486 559 38,000  Level FlightAware ADS-B
04:29PM 47.3724 -122.1690 306° West 486 559 38,000  Level FlightAware ADS-B
04:29PM 47.3736 -122.1720 301° West 486 559 38,000  Level FlightAware ADS-B
04:30PM 47.3754 -122.1760 304° West 486 559 38,000  Level FlightAware ADS-B
04:30PM 47.3769 -122.1790 306° West 486 559 38,000  Level FlightAware ADS-B
04:30PM 47.3774 -122.1800 306° West 486 559 38,000  Level FlightAware ADS-B
04:30PM 47.3786 -122.1830 301° West 486 559 38,000  Level FlightAware ADS-B
04:30PM 47.3799 -122.1860 303° West 486 559 38,000  Level FlightAware ADS-B
04:30PM 47.3712 -122.1667 124° Southeast 486 559 38,000  Level FlightAware ADS-B (EPKK / KRK)
04:30PM 47.3823 -122.1920 303° West 486 559 38,000  Level FlightAware ADS-B
04:30PM 47.3836 -122.1940 314° West 486 559 38,000  Level FlightAware ADS-B
04:30PM 47.3848 -122.1970 301° West 486 559 38,000  Level FlightAware ADS-B
04:30PM 47.3868 -122.2010 306° West 486 559 38,000  Level FlightAware ADS-B
04:30PM 47.3878 -122.2040 296° West 486 559 38,000  Level FlightAware ADS-B
04:30PM 47.3891 -122.2060 314° West 486 559 38,000  Level FlightAware ADS-B
04:30PM 47.3903 -122.2090 301° West 486 559 38,000  Level FlightAware ADS-B
04:30PM 47.3913 -122.2110 306° West 486 559 38,000  Level FlightAware ADS-B
04:30PM 47.3945 -122.2185 302° West 486 559 38,000  Level FlightAware ADS-B (EPKK / KRK)
04:30PM 47.3967 -122.2230 306° West 486 559 38,000  Level FlightAware ADS-B
04:30PM 47.3979 -122.2260 301° West 486 559 38,000  Level FlightAware ADS-B
04:30PM 47.4039 -122.2390 304° West 486 559 38,000  Level FlightAware ADS-B
04:30PM 47.4051 -122.2420 301° West 486 559 38,000  Level FlightAware ADS-B
04:30PM 47.4064 -122.2450 303° West 486 559 38,000  Level FlightAware ADS-B
04:30PM 47.4076 -122.2480 301° West 486 559 38,000  Level FlightAware ADS-B
04:30PM 47.4088 -122.2510 301° West 486 559 38,000  Level FlightAware ADS-B
04:30PM 47.4098 -122.2528 309° West 486 559 38,000  Level FlightAware ADS-B (CYWH)
04:30PM 47.4110 -122.2560 300° West 485 558 38,000  Level FlightAware ADS-B
04:30PM 47.4119 -122.2580 304° West 486 559 38,000  Level FlightAware ADS-B
04:30PM 47.4131 -122.2610 301° West 486 559 38,000  Level FlightAware ADS-B
04:30PM 47.4147 -122.2650 301° West 486 559 38,000  Level FlightAware ADS-B
04:30PM 47.4158 -122.2670 309° West 486 559 38,000  Level FlightAware ADS-B
04:30PM 47.4169 -122.2700 298° West 486 559 38,000  Level FlightAware ADS-B
04:30PM 47.4181 -122.2730 301° West 486 559 38,000  Level FlightAware ADS-B
04:30PM 47.4191 -122.2760 296° West 485 558 38,000  Level FlightAware ADS-B
04:30PM 47.4200 -122.2780 304° West 485 558 38,000  Level FlightAware ADS-B
04:30PM 47.4240 -122.2900 296° West 486 559 38,000  Level FlightAware ADS-B
04:30PM 47.4268 -122.2980 297° West 485 558 38,000  Level FlightAware ADS-B
04:30PM 47.4272 -122.2990 301° West 485 558 38,000  Level FlightAware ADS-B
04:30PM 47.4282 -122.3020 296° West 485 558 38,000  Level FlightAware ADS-B
04:30PM 47.4292 -122.3050 296° West 485 558 38,000  Level FlightAware ADS-B
04:30PM 47.4303 -122.3080 298° West 486 559 38,000  Level FlightAware ADS-B
04:30PM 47.4312 -122.3110 294° West 485 558 38,000  Level FlightAware ADS-B
04:30PM 47.4321 -122.3150 288° West 485 558 38,000  Level FlightAware ADS-B
04:30PM 47.4334 -122.3190 296° West 485 558 38,000  Level FlightAware ADS-B
04:30PM 47.4339 -122.3210 290° West 485 558 38,000  Level FlightAware ADS-B
04:30PM 47.4347 -122.3230 301° West 485 558 38,000  Level FlightAware ADS-B
04:30PM 47.4355 -122.3260 292° West 486 559 38,000  Level FlightAware ADS-B
04:30PM 47.4364 -122.3290 294° West 486 559 38,000  Level FlightAware ADS-B
04:30PM 47.4372 -122.3321 291° West 485 558 38,000  Level FlightAware ADS-B (EPKK / KRK)
04:30PM 47.4379 -122.3350 289° West 485 558 38,000  Level FlightAware ADS-B
04:30PM 47.4392 -122.3400 291° West 486 559 38,000  Level FlightAware ADS-B
04:30PM 47.4397 -122.3410 306° West 486 559 38,000  Level FlightAware ADS-B
04:30PM 47.4403 -122.3440 286° West 486 559 38,000  Level FlightAware ADS-B
04:31PM 47.4411 -122.3470 292° West 486 559 38,000  Level FlightAware ADS-B
04:31PM 47.4419 -122.3500 292° West 486 559 38,000  Level FlightAware ADS-B
04:31PM 47.4429 -122.3540 290° West 486 559 38,000  Level FlightAware ADS-B
04:31PM 47.4437 -122.3580 286° West 486 559 38,000  Level FlightAware ADS-B
04:31PM 47.4441 -122.3590 301° West 486 559 38,000  Level FlightAware ADS-B
04:31PM 47.4448 -122.3626 287° West 486 559 38,000  Level FlightAware ADS-B (EPKK / KRK)
04:31PM 47.4455 -122.3660 286° West 486 559 38,000  Level FlightAware ADS-B
04:31PM 47.4466 -122.3710 288° West 486 559 38,000  Level FlightAware ADS-B
04:31PM 47.4469 -122.3720 294° West 486 559 38,000  Level FlightAware ADS-B
04:31PM 47.4478 -122.3760 288° West 486 559 38,000  Level FlightAware ADS-B
04:31PM 47.4485 -122.3800 285° West 486 559 38,000  Level FlightAware ADS-B
04:31PM 47.4493 -122.3840 286° West 487 560 38,000  Level FlightAware ADS-B
04:31PM 47.4497 -122.3860 286° West 487 560 38,000  Level FlightAware ADS-B
04:31PM 47.4504 -122.3900 285° West 487 560 38,000  Level FlightAware ADS-B
04:31PM 47.4507 -122.3910 294° West 487 560 38,000  Level FlightAware ADS-B
04:31PM 47.4514 -122.3950 285° West 486 559 38,000  Level FlightAware ADS-B
04:31PM 47.4540 -122.4100 284° West 487 560 38,000  Level FlightAware ADS-B
04:31PM 47.4558 -122.4200 285° West 486 559 38,000  Level FlightAware ADS-B
04:31PM 47.4560 -122.4210 286° West 486 559 38,000  Level FlightAware ADS-B
04:31PM 47.4566 -122.4240 286° West 486 559 38,000  Level FlightAware ADS-B
04:31PM 47.4572 -122.4280 283° West 486 559 38,000  Level FlightAware ADS-B
04:31PM 47.4576 -122.4300 286° West 486 559 38,000  Level FlightAware ADS-B
04:31PM 47.4592 -122.4380 286° West 487 560 38,000  Level FlightAware ADS-B
04:31PM 47.4594 -122.4400 278° West 487 560 38,000  Level FlightAware ADS-B
04:31PM 47.4606 -122.4460 286° West 486 559 38,000  Level FlightAware ADS-B
04:31PM 47.4613 -122.4500 285° West 486 559 38,000  Level FlightAware ADS-B
04:31PM 47.4619 -122.4530 286° West 486 559 38,000  Level FlightAware ADS-B
04:31PM 47.4625 -122.4560 286° West 486 559 38,000  Level FlightAware ADS-B
04:31PM 47.4633 -122.4610 283° West 486 559 38,000  Level FlightAware ADS-B
04:31PM 47.4640 -122.4650 285° West 486 559 38,000  Level FlightAware ADS-B
04:31PM 47.4644 -122.4670 286° West 486 559 38,000  Level FlightAware ADS-B
04:31PM 47.4650 -122.4700 286° West 486 559 38,000  Level FlightAware ADS-B
04:31PM 47.4653 -122.4720 283° West 486 559 38,000  Level FlightAware ADS-B
04:31PM 47.4659 -122.4750 286° West 486 559 38,000  Level FlightAware ADS-B
04:31PM 47.4665 -122.4780 286° West 486 559 38,000  Level FlightAware ADS-B
04:31PM 47.4671 -122.4810 286° West 486 559 38,000  Level FlightAware ADS-B
04:31PM 47.4677 -122.4850 283° West 486 559 38,000  Level FlightAware ADS-B
04:31PM 47.4682 -122.4870 290° West 486 559 38,000  Level FlightAware ADS-B
04:31PM 47.4694 -122.4930 286° West 486 559 38,000  Level FlightAware ADS-B
04:31PM 47.4703 -122.4990 283° West 486 559 38,000  Level FlightAware ADS-B
04:31PM 47.4709 -122.5020 286° West 486 559 38,000  Level FlightAware ADS-B
04:31PM 47.4715 -122.5050 286° West 486 559 38,000  Level FlightAware ADS-B
04:31PM 47.4718 -122.5070 283° West 486 559 38,000  Level FlightAware ADS-B
04:31PM 47.4724 -122.5100 286° West 486 559 38,000  Level FlightAware ADS-B
04:31PM 47.4729 -122.5130 284° West 486 559 38,000  Level FlightAware ADS-B
04:31PM 47.4735 -122.5160 286° West 486 559 38,000  Level FlightAware ADS-B
04:31PM 47.4741 -122.5190 286° West 486 559 38,000  Level FlightAware ADS-B
04:31PM 47.4747 -122.5220 286° West 486 559 38,000  Level FlightAware ADS-B
04:31PM 47.4756 -122.5270 285° West 486 559 38,000  Level FlightAware ADS-B
04:31PM 47.4760 -122.5290 286° West 486 559 38,000  Level FlightAware ADS-B
04:31PM 47.4765 -122.5320 284° West 486 559 38,000  Level FlightAware ADS-B
04:31PM 47.4772 -122.5360 285° West 486 559 38,000  Level FlightAware ADS-B
04:32PM 47.4777 -122.5390 284° West 486 559 38,000  Level FlightAware ADS-B
04:32PM 47.4783 -122.5420 286° West 486 559 38,000  Level FlightAware ADS-B
04:32PM 47.4788 -122.5450 284° West 486 559 38,000  Level FlightAware ADS-B
04:32PM 47.4798 -122.5500 286° West 486 559 38,000  Level FlightAware ADS-B
04:32PM 47.4802 -122.5520 286° West 486 559 38,000  Level FlightAware ADS-B
04:32PM 47.4808 -122.5550 286° West 486 559 38,000  Level FlightAware ADS-B
04:32PM 47.4814 -122.5590 283° West 486 559 38,000  Level FlightAware ADS-B
04:32PM 47.4819 -122.5610 290° West 486 559 38,000  Level FlightAware ADS-B
04:32PM 47.4825 -122.5650 283° West 486 559 38,000  Level FlightAware ADS-B
04:32PM 47.4830 -122.5680 284° West 486 559 38,000  Level FlightAware ADS-B
04:32PM 47.4841 -122.5730 288° West 486 559 38,000  Level FlightAware ADS-B
04:32PM 47.4843 -122.5750 278° West 486 559 38,000  Level FlightAware ADS-B
04:32PM 47.4846 -122.5770 283° West 486 559 38,000  Level FlightAware ADS-B
04:32PM 47.4855 -122.5810 288° West 486 559 38,000  Level FlightAware ADS-B
04:32PM 47.4861 -122.5840 286° West 486 559 38,000  Level FlightAware ADS-B
04:32PM 47.4867 -122.5870 286° West 486 559 38,000  Level FlightAware ADS-B
04:32PM 47.4875 -122.5920 283° West 486 559 38,000  Level FlightAware ADS-B
04:32PM 47.4878 -122.5940 283° West 486 559 38,000  Level FlightAware ADS-B
04:32PM 47.4884 -122.5970 286° West 486 559 38,000  Level FlightAware ADS-B
04:32PM 47.4890 -122.6000 286° West 486 559 38,000  Level FlightAware ADS-B
04:32PM 47.4897 -122.6040 285° West 486 559 38,000  Level FlightAware ADS-B
04:32PM 47.4901 -122.6060 286° West 487 560 38,000  Level FlightAware ADS-B
04:32PM 47.4906 -122.6090 284° West 487 560 38,000  Level FlightAware ADS-B
04:32PM 47.4911 -122.6120 284° West 487 560 38,000  Level FlightAware ADS-B
04:32PM 47.4919 -122.6160 286° West 487 560 38,000  Level FlightAware ADS-B
04:32PM 47.4928 -122.6207 285° West 487 560 38,000  Level FlightAware ADS-B (EPKK / KRK)
04:32PM 47.4933 -122.6240 283° West 487 560 38,000  Level FlightAware ADS-B
04:32PM 47.4937 -122.6260 286° West 487 560 38,000  Level FlightAware ADS-B
04:32PM 47.4945 -122.6300 286° West 487 560 38,000  Level FlightAware ADS-B
04:32PM 47.4948 -122.6320 283° West 487 560 38,000  Level FlightAware ADS-B
04:32PM 47.4953 -122.6350 284° West 487 560 38,000  Level FlightAware ADS-B
04:32PM 47.4959 -122.6380 286° West 487 560 38,000  Level FlightAware ADS-B
04:32PM 47.4965 -122.6410 286° West 487 560 38,000  Level FlightAware ADS-B
04:32PM 47.4971 -122.6440 286° West 487 560 38,000  Level FlightAware ADS-B
04:32PM 47.4976 -122.6470 284° West 487 560 38,000  Level FlightAware ADS-B
04:32PM 47.4982 -122.6510 283° West 487 560 38,000  Level FlightAware ADS-B
04:32PM 47.4988 -122.6540 286° West 487 560 38,000  Level FlightAware ADS-B
04:32PM 47.4993 -122.6570 284° West 487 560 38,000  Level FlightAware ADS-B
04:32PM 47.4999 -122.6600 286° West 487 560 38,000  Level FlightAware ADS-B
04:32PM 47.5005 -122.6630 286° West 487 560 38,000  Level FlightAware ADS-B
04:32PM 47.5011 -122.6660 286° West 487 560 38,000  Level FlightAware ADS-B
04:32PM 47.5020 -122.6710 285° West 487 560 38,000  Level FlightAware ADS-B
04:32PM 47.5022 -122.6730 278° West 487 560 38,000  Level FlightAware ADS-B
04:32PM 47.5029 -122.6760 289° West 487 560 38,000  Level FlightAware ADS-B
04:32PM 47.5035 -122.6800 283° West 487 560 38,000  Level FlightAware ADS-B
04:32PM 47.5043 -122.6840 286° West 487 560 38,000  Level FlightAware ADS-B
04:32PM 47.5046 -122.6850 294° West 487 560 38,000  Level FlightAware ADS-B
04:32PM 47.5052 -122.6890 283° West 487 560 38,000  Level FlightAware ADS-B
04:32PM 47.5058 -122.6920 286° West 487 560 38,000  Level FlightAware ADS-B
04:32PM 47.5067 -122.6970 285° West 487 560 38,000  Level FlightAware ADS-B
04:32PM 47.5073 -122.7000 286° West 487 560 38,000  Level FlightAware ADS-B
04:32PM 47.5077 -122.7030 281° West 487 560 38,000  Level FlightAware ADS-B
04:32PM 47.5083 -122.7060 286° West 487 560 38,000  Level FlightAware ADS-B
04:32PM 47.5088 -122.7090 284° West 487 560 38,000  Level FlightAware ADS-B
04:32PM 47.5095 -122.7120 289° West 487 560 38,000  Level FlightAware ADS-B
04:32PM 47.5101 -122.7160 283° West 488 562 38,000  Level FlightAware ADS-B
04:32PM 47.5112 -122.7220 285° West 488 562 38,000  Level FlightAware ADS-B
04:32PM 47.5118 -122.7250 286° West 488 562 38,000  Level FlightAware ADS-B
04:33PM 47.5130 -122.7320 284° West 488 562 38,000  Level FlightAware ADS-B
04:33PM 47.5134 -122.7340 286° West 488 562 38,000  Level FlightAware ADS-B
04:33PM 47.5141 -122.7380 285° West 488 562 38,000  Level FlightAware ADS-B
04:33PM 47.5146 -122.7410 284° West 488 562 38,000  Level FlightAware ADS-B
04:33PM 47.5151 -122.7430 290° West 488 562 38,000  Level FlightAware ADS-B
04:33PM 47.5156 -122.7460 284° West 488 562 38,000  Level FlightAware ADS-B
04:33PM 47.5165 -122.7510 285° West 488 562 38,000  Level FlightAware ADS-B
04:33PM 47.5174 -122.7560 285° West 488 562 38,000  Level FlightAware ADS-B
04:33PM 47.5180 -122.7590 286° West 488 562 38,000  Level FlightAware ADS-B
04:33PM 47.5186 -122.7620 286° West 488 562 38,000  Level FlightAware ADS-B
04:33PM 47.5191 -122.7660 280° West 488 562 38,000  Level FlightAware ADS-B
04:33PM 47.5203 -122.7720 286° West 488 562 38,000  Level FlightAware ADS-B
04:33PM 47.5208 -122.7750 284° West 488 562 38,000  Level FlightAware ADS-B
04:33PM 47.5214 -122.7780 286° West 488 562 38,000  Level FlightAware ADS-B
04:33PM 47.5217 -122.7800 283° West 488 562 38,000  Level FlightAware ADS-B
04:33PM 47.5229 -122.7860 286° West 488 562 38,000  Level FlightAware ADS-B
04:33PM 47.5236 -122.7910 282° West 487 560 38,000  Level FlightAware ADS-B
04:33PM 47.5242 -122.7940 286° West 488 562 38,000  Level FlightAware ADS-B
04:33PM 47.5260 -122.8040 285° West 486 559 38,000  Level FlightAware ADS-B
04:33PM 47.5266 -122.8070 286° West 487 560 38,000  Level FlightAware ADS-B
04:33PM 47.5270 -122.8090 286° West 487 560 38,000  Level FlightAware ADS-B
04:33PM 47.5274 -122.8110 286° West 487 560 38,000  Level FlightAware ADS-B
04:33PM 47.5283 -122.8160 285° West 487 560 38,000  Level FlightAware ADS-B
04:33PM 47.5289 -122.8200 283° West 487 560 38,000  Level FlightAware ADS-B
04:33PM 47.5295 -122.8230 287° West 487 560 38,000  Level FlightAware ADS-B
04:33PM 47.5300 -122.8260 284° West 486 559 38,000  Level FlightAware ADS-B
04:33PM 47.5313 -122.8330 285° West 487 560 38,000  Level FlightAware ADS-B
04:33PM 47.5319 -122.8360 287° West 486 559 38,000  Level FlightAware ADS-B
04:33PM 47.5343 -122.8500 284° West 486 559 38,000  Level FlightAware ADS-B
04:33PM 47.5349 -122.8530 287° West 486 559 38,000  Level FlightAware ADS-B
04:33PM 47.5354 -122.8560 284° West 486 559 38,000  Level FlightAware ADS-B
04:33PM 47.5359 -122.8590 284° West 486 559 38,000  Level FlightAware ADS-B
04:33PM 47.5365 -122.8620 287° West 486 559 38,000  Level FlightAware ADS-B
04:33PM 47.5373 -122.8660 287° West 486 559 38,000  Level FlightAware ADS-B
04:33PM 47.5377 -122.8680 287° West 486 559 38,000  Level FlightAware ADS-B
04:33PM 47.5385 -122.8730 283° West 486 559 38,000  Level FlightAware ADS-B
04:33PM 47.5393 -122.8770 287° West 486 559 38,000  Level FlightAware ADS-B
04:33PM 47.5397 -122.8800 281° West 486 559 38,000  Level FlightAware ADS-B
04:33PM 47.5403 -122.8830 287° West 486 559 38,000  Level FlightAware ADS-B
04:33PM 47.5415 -122.8890 287° West 486 559 38,000  Level FlightAware ADS-B
04:33PM 47.5421 -122.8930 283° West 486 559 38,000  Level FlightAware ADS-B
04:33PM 47.5426 -122.8960 284° West 486 559 38,000  Level FlightAware ADS-B
04:33PM 47.5432 -122.8990 287° West 486 559 38,000  Level FlightAware ADS-B
04:33PM 47.5438 -122.9020 287° West 486 559 38,000  Level FlightAware ADS-B
04:33PM 47.5445 -122.9060 285° West 486 559 38,000  Level FlightAware ADS-B
04:33PM 47.5449 -122.9090 281° West 486 559 38,000  Level FlightAware ADS-B
04:33PM 47.5455 -122.9120 287° West 486 559 38,000  Level FlightAware ADS-B
04:33PM 47.5461 -122.9150 287° West 486 559 38,000  Level FlightAware ADS-B
04:33PM 47.5465 -122.9180 281° West 486 559 38,000  Level FlightAware ADS-B
04:33PM 47.5472 -122.9220 285° West 486 559 38,000  Level FlightAware ADS-B
04:34PM 47.5478 -122.9250 287° West 486 559 38,000  Level FlightAware ADS-B
04:34PM 47.5485 -122.9290 285° West 486 559 38,000  Level FlightAware ADS-B
04:34PM 47.5490 -122.9310 290° West 486 559 38,000  Level FlightAware ADS-B
04:34PM 47.5494 -122.9340 281° West 486 559 38,000  Level FlightAware ADS-B
04:34PM 47.5500 -122.9370 287° West 486 559 38,000  Level FlightAware ADS-B
04:34PM 47.5506 -122.9400 287° West 486 559 38,000  Level FlightAware ADS-B
04:34PM 47.5513 -122.9440 285° West 486 559 38,000  Level FlightAware ADS-B
04:34PM 47.5518 -122.9470 284° West 486 559 38,000  Level FlightAware ADS-B
04:34PM 47.5524 -122.9500 287° West 486 559 38,000  Level FlightAware ADS-B
04:34PM 47.5534 -122.9560 284° West 486 559 38,000  Level FlightAware ADS-B
04:34PM 47.5541 -122.9600 285° West 486 559 38,000  Level FlightAware ADS-B
04:34PM 47.5547 -122.9630 287° West 487 560 38,000  Level FlightAware ADS-B
04:34PM 47.5553 -122.9670 283° West 486 559 38,000  Level FlightAware ADS-B
04:34PM 47.5560 -122.9700 289° West 487 560 38,000  Level FlightAware ADS-B
04:34PM 47.5564 -122.9730 281° West 487 560 38,000  Level FlightAware ADS-B
04:34PM 47.5570 -122.9760 287° West 486 559 38,000  Level FlightAware ADS-B
04:34PM 47.5576 -122.9790 287° West 487 560 38,000  Level FlightAware ADS-B
04:34PM 47.5581 -122.9830 280° West 487 560 38,000  Level FlightAware ADS-B
04:34PM 47.5588 -122.9860 289° West 487 560 38,000  Level FlightAware ADS-B
04:34PM 47.5594 -122.9900 283° West 487 560 38,000  Level FlightAware ADS-B
04:34PM 47.5600 -122.9930 287° West 487 560 38,000  Level FlightAware ADS-B
04:34PM 47.5606 -122.9960 287° West 487 560 38,000  Level FlightAware ADS-B
04:34PM 47.5611 -122.9990 284° West 487 560 38,000  Level FlightAware ADS-B
04:34PM 47.5617 -123.0030 283° West 487 560 38,000  Level FlightAware ADS-B
04:34PM 47.5619 -123.0038 292° West 487 560 38,000  Level FlightAware ADS-B (EPKK / KRK)
04:34PM 47.5628 -123.0090 284° West 487 560 38,000  Level FlightAware ADS-B
04:34PM 47.5640 -123.0150 287° West 487 560 38,000  Level FlightAware ADS-B
04:34PM 47.5644 -123.0180 281° West 487 560 38,000  Level FlightAware ADS-B
04:34PM 47.5667 -123.0310 285° West 487 560 38,000  Level FlightAware ADS-B
04:34PM 47.5672 -123.0330 290° West 487 560 38,000  Level FlightAware ADS-B
04:34PM 47.5678 -123.0370 283° West 487 560 38,000  Level FlightAware ADS-B
04:34PM 47.5682 -123.0390 287° West 487 560 38,000  Level FlightAware ADS-B
04:34PM 47.5689 -123.0430 284° West 485 558 38,000  Level FlightAware ADS-B (CYWH)
04:34PM 47.5695 -123.0460 287° West 487 560 38,000  Level FlightAware ADS-B
04:34PM 47.5713 -123.0560 285° West 487 560 38,000  Level FlightAware ADS-B
04:34PM 47.5718 -123.0590 284° West 487 560 38,000  Level FlightAware ADS-B
04:34PM 47.5723 -123.0620 284° West 487 560 38,000  Level FlightAware ADS-B
04:34PM 47.5735 -123.0690 284° West 487 560 38,000  Level FlightAware ADS-B
04:34PM 47.5752 -123.0780 286° West 487 560 38,000  Level FlightAware ADS-B
04:34PM 47.5757 -123.0810 284° West 487 560 38,000  Level FlightAware ADS-B
04:34PM 47.5787 -123.0983 285° West 485 558 38,000  Level FlightAware ADS-B (CYWH)
04:34PM 47.5796 -123.1030 286° West 487 560 38,000  Level FlightAware ADS-B
04:34PM 47.5810 -123.1110 285° West 487 560 38,000  Level FlightAware ADS-B
04:35PM 47.5827 -123.1210 284° West 487 560 38,000  Level FlightAware ADS-B
04:35PM 47.5849 -123.1331 285° West 487 560 38,000  Level FlightAware ADS-B (EPKK / KRK)
04:35PM 47.5864 -123.1410 286° West 488 562 38,000  Level FlightAware ADS-B
04:35PM 47.5876 -123.1480 284° West 487 560 38,000  Level FlightAware ADS-B
04:35PM 47.5892 -123.1580 283° West 488 562 38,000  Level FlightAware ADS-B
04:35PM 47.5901 -123.1620 288° West 488 562 38,000  Level FlightAware ADS-B
04:35PM 47.5941 -123.1850 284° West 488 562 38,000  Level FlightAware ADS-B
04:35PM 47.5965 -123.1990 284° West 488 562 38,000  Level FlightAware ADS-B
04:35PM 47.5990 -123.2120 286° West 488 562 38,000  Level FlightAware ADS-B
04:35PM 47.6002 -123.2190 284° West 488 562 38,000  Level FlightAware ADS-B
04:35PM 47.6013 -123.2260 283° West 488 562 38,000  Level FlightAware ADS-B
04:35PM 47.6019 -123.2290 287° West 488 562 38,000  Level FlightAware ADS-B
04:35PM 47.6128 -123.2909 285° West 488 562 38,000  Level FlightAware ADS-B (EPKK / KRK)
04:36PM 47.6164 -123.3120 284° West 488 562 38,000  Level FlightAware ADS-B
04:36PM 47.6166 -123.3130 287° West 488 562 38,000  Level FlightAware ADS-B
04:36PM 47.6172 -123.3160 287° West 488 562 38,000  Level FlightAware ADS-B
04:36PM 47.6178 -123.3190 287° West 488 562 38,000  Level FlightAware ADS-B
04:36PM 47.6187 -123.3240 285° West 488 562 38,000  Level FlightAware ADS-B
04:36PM 47.6190 -123.3260 283° West 488 562 38,000  Level FlightAware ADS-B
04:36PM 47.6201 -123.3330 283° West 488 562 38,000  Level FlightAware ADS-B
04:36PM 47.6271 -123.3730 285° West 488 562 38,000  Level FlightAware ADS-B
04:36PM 47.6282 -123.3790 285° West 488 562 38,000  Level FlightAware ADS-B
04:36PM 47.6284 -123.3800 287° West 488 562 38,000  Level FlightAware ADS-B
04:36PM 47.6304 -123.3920 284° West 488 562 38,000  Level FlightAware ADS-B
04:36PM 47.6318 -123.3990 287° West 488 562 38,000  Level FlightAware ADS-B
04:36PM 47.6330 -123.4060 284° West 488 562 38,000  Level FlightAware ADS-B
04:36PM 47.6338 -123.4110 283° West 488 562 38,000  Level FlightAware ADS-B
04:36PM 47.6370 -123.4290 285° West 486 559 38,000  Level FlightAware ADS-B (CYWH)
04:36PM 47.6377 -123.4340 283° West 488 562 38,000  Level FlightAware ADS-B
04:36PM 47.6411 -123.4530 285° West 488 562 38,000  Level FlightAware ADS-B
04:36PM 47.6424 -123.4600 285° West 488 562 38,000  Level FlightAware ADS-B
04:36PM 47.6427 -123.4620 283° West 488 562 38,000  Level FlightAware ADS-B
04:36PM 47.6463 -123.4830 284° West 488 562 38,000  Level FlightAware ADS-B
04:36PM 47.6474 -123.4889 286° West 488 562 38,000  Level FlightAware ADS-B (EPKK / KRK)
04:36PM 47.6488 -123.4970 284° West 488 562 38,000  Level FlightAware ADS-B
04:36PM 47.6497 -123.5020 285° West 488 562 38,000  Level FlightAware ADS-B
04:37PM 47.6562 -123.5390 285° West 488 562 38,000  Level FlightAware ADS-B
04:37PM 47.6572 -123.5450 284° West 488 562 38,000  Level FlightAware ADS-B
04:37PM 47.6589 -123.5550 284° West 488 562 38,000  Level FlightAware ADS-B
04:37PM 47.6602 -123.5630 284° West 488 562 38,000  Level FlightAware ADS-B
04:37PM 47.6611 -123.5680 285° West 488 562 38,000  Level FlightAware ADS-B
04:37PM 47.6637 -123.5830 284° West 488 562 38,000  Level FlightAware ADS-B
04:37PM 47.6650 -123.5900 285° West 488 562 38,000  Level FlightAware ADS-B
04:37PM 47.6670 -123.6020 284° West 488 562 38,000  Level FlightAware ADS-B
04:37PM 47.6694 -123.6156 284° West 488 562 38,000  Level FlightAware ADS-B (EPKK / KRK)
04:37PM 47.6711 -123.6260 284° West 488 562 38,000  Level FlightAware ADS-B
04:37PM 47.6760 -123.6540 285° West 488 562 38,000  Level FlightAware ADS-B
04:37PM 47.6766 -123.6580 283° West 488 562 38,000  Level FlightAware ADS-B
04:37PM 47.6772 -123.6610 287° West 488 562 38,000  Level FlightAware ADS-B
04:37PM 47.6804 -123.6800 284° West 488 562 38,000  Level FlightAware ADS-B
04:37PM 47.6824 -123.6910 285° West 488 562 38,000  Level FlightAware ADS-B
04:37PM 47.6833 -123.6970 283° West 488 562 38,000  Level FlightAware ADS-B
04:38PM 47.6843 -123.7020 287° West 488 562 38,000  Level FlightAware ADS-B
04:38PM 47.6943 -123.7600 284° West 487 560 38,000  Level FlightAware ADS-B
04:38PM 47.6956 -123.7680 284° West 487 560 38,000  Level FlightAware ADS-B
04:38PM 47.6965 -123.7730 285° West 487 560 38,000  Level FlightAware ADS-B
04:38PM 47.6972 -123.7770 285° West 487 560 38,000  Level FlightAware ADS-B
04:38PM 47.6984 -123.7840 284° West 487 560 38,000  Level FlightAware ADS-B
04:38PM 47.6989 -123.7880 281° West 487 560 38,000  Level FlightAware ADS-B
04:38PM 47.7023 -123.8070 285° West 487 560 38,000  Level FlightAware ADS-B
04:38PM 47.7028 -123.8102 283° West 487 560 38,000  Level FlightAware ADS-B (EPKK / KRK)
04:38PM 47.7103 -123.8540 284° West 487 560 38,000  Level FlightAware ADS-B
04:38PM 47.7162 -123.8890 284° West 487 560 38,000  Level FlightAware ADS-B
04:39PM 47.7181 -123.9000 284° West 487 560 38,000  Level FlightAware ADS-B
04:39PM 47.7193 -123.9070 284° West 487 560 38,000  Level FlightAware ADS-B
04:39PM 47.7202 -123.9120 285° West 487 560 38,000  Level FlightAware ADS-B
04:39PM 47.7220 -123.9230 284° West 487 560 38,000  Level FlightAware ADS-B
04:39PM 47.7239 -123.9344 284° West 485 558 38,000  Level FlightAware ADS-B (CYWH)
04:39PM 47.7329 -123.9870 284° West 487 560 38,000  Level FlightAware ADS-B
04:39PM 47.7352 -124.0010 284° West 487 560 38,000  Level FlightAware ADS-B
04:39PM 47.7369 -124.0110 284° West 487 560 38,000  Level FlightAware ADS-B
04:39PM 47.7399 -124.0290 284° West 487 560 38,000  Level FlightAware ADS-B
04:39PM 47.7417 -124.0400 284° West 487 560 38,000  Level FlightAware ADS-B
04:39PM 47.7442 -124.0540 285° West 487 560 38,000  Level FlightAware ADS-B
04:40PM 47.7533 -124.1084 284° West 488 562 38,000  Level FlightAware ADS-B (CYWH)
04:40PM 47.7553 -124.1210 283° West 487 560 38,000  Level FlightAware ADS-B
04:40PM 47.7568 -124.1292 285° West 488 562 38,000  Level FlightAware ADS-B (EPKK / KRK)
04:40PM 47.7575 -124.1340 283° West 487 560 38,000  Level FlightAware ADS-B
04:40PM 47.7591 -124.1430 285° West 487 560 38,000  Level FlightAware ADS-B
04:40PM 47.7617 -124.1590 284° West 487 560 38,000  Level FlightAware ADS-B (EPKK / KRK)
04:41PM 47.7846 -124.2960 284° West 488 562 38,000  Level FlightAware ADS-B
04:41PM 47.7852 -124.2999 283° West 488 562 38,000  Level FlightAware ADS-B (CYWH)
04:41PM 47.7931 -124.3470 284° West 489 563 38,000  Level FlightAware ADS-B
04:41PM 47.7949 -124.3580 284° West 489 563 38,000  Level FlightAware ADS-B
04:41PM 47.7955 -124.3620 283° West 489 563 38,000  Level FlightAware ADS-B
04:41PM 47.7975 -124.3740 284° West 489 563 38,000  Level FlightAware ADS-B
04:42PM 47.8324 -124.5870 284° West 488 562 38,000  Level FlightAware ADS-B
04:42PM 47.8339 -124.5960 284° West 488 562 38,000  Level FlightAware ADS-B
04:42PM 47.8349 -124.6020 284° West 488 562 38,000  Level FlightAware ADS-B
04:42PM 47.8397 -124.6310 284° West 488 562 38,000  Level FlightAware ADS-B
04:42PM 47.8423 -124.6480 283° West 488 562 38,000  Level FlightAware ADS-B
04:42PM 47.8434 -124.6540 285° West 488 562 38,000  Level FlightAware ADS-B
04:43PM 47.8590 -124.7510 284° West 487 560 38,000  Level FlightAware
04:44PM 47.8825 -124.8963 284° West 488 562 38,000  Level FlightAware ADS-B (CYWH)
04:45PM 47.9130 -125.0880 283° West 488 562 38,000  Level FlightAware
04:45PM 47.9211 -125.1392 283° West 488 562 38,000  Level FlightAware ADS-B (CYWH)
04:45PM 47.9342 -125.2230 283° West 488 562 38,000  Level FlightAware ADS-B
04:46PM 47.9472 -125.3060 283° West 489 563 38,000  Level FlightAware ADS-B
04:46PM 47.9614 -125.3968 283° West 489 563 38,000  Level FlightAware ADS-B (EPKK / KRK)
04:49PM 48.0430 -125.9330 283° West 490 564 38,000  Level FlightAware
04:54PM 48.1810 -126.8780 283° West 489 563 38,000  Level FlightAware
04:57PM 48.2660 -127.4950 282° West 491 565 38,000  Level FlightAware
04:58PM 48.2910 -127.6760 282° West 490 564 38,000  Level FlightAware
05:01PM 48.3780 -128.2910 282° West 490 564 38,000  Level FlightAware
05:03PM 48.5167 -128.6167 282° West 480 552 38,000  Level Vancouver Center
05:04PM 48.5833 -128.8000 299° West 490 564 38,000  Level Vancouver Center
05:05PM 48.6333 -128.9833 292° West 480 552 38,000  Level Vancouver Center
05:06PM 48.7000 -129.1667 299° West 480 552 38,000  Level Vancouver Center
05:07PM 48.7667 -129.3500 299° West 490 564 38,000  Level Vancouver Center
05:08PM 48.8333 -129.5333 299° West 490 564 38,000  Level Vancouver Center
05:09PM 48.8833 -129.7167 293° West 480 552 38,000  Level Vancouver Center
05:10PM 48.9500 -129.9000 299° West 480 552 38,000  Level Vancouver Center
05:11PM 49.0000 -130.0833 293° West 480 552 38,000  Level Vancouver Center
05:12PM 49.0333 -130.2667 286° West 480 552 38,000  Level Vancouver Center
05:13PM 49.1000 -130.4500 299° West 480 552 38,000  Level Vancouver Center
05:14PM 49.1333 -130.6667 283° West 480 552 38,000  Level Vancouver Center
05:15PM 49.1833 -130.8333 295° West 470 541 38,000  Level Vancouver Center
05:16PM 49.2333 -131.0333 291° West 470 541 38,000  Level Vancouver Center
05:17PM 49.2833 -131.2333 291° West 470 541 38,000  Level Vancouver Center
05:18PM 49.3167 -131.4167 286° West 470 541 38,000  Level Vancouver Center
05:19PM 49.3500 -131.6000 286° West 470 541 38,000  Level Vancouver Center
05:20PM 49.4167 -131.7833 299° West 470 541 38,000  Level Vancouver Center
05:21PM 49.4500 -131.9667 286° West 440 506 38,000  Level Vancouver Center
05:22PM 49.4833 -132.1667 284° West 460 529 38,000  Level Vancouver Center
05:24PM 49.6000 -132.5500 295° West 500 575 38,000  Level Vancouver Center
05:26PM 49.6833 -132.9500 288° West 430 495 38,000  Level Vancouver Center
05:27PM 49.7000 -133.1333 278° West 450 518 38,000  Level Vancouver Center
05:29PM 49.8167 -133.5333 288° West 466 536 38,000  Level Oakland Oceanic (ODAPS)
05:34PM 50.0333 -134.5000 288° West 467 537 38,000  Level Oakland Oceanic (ODAPS)
05:36PM 50.0582 -134.6845 288° West 466 536 38,000  Level FlightAware Transoceanic
05:37PM 50.0974 -134.8775 287° West 466 536 38,000  Level FlightAware Transoceanic
05:38PM 50.1362 -135.0708 287° West 466 536 38,000  Level FlightAware Transoceanic
05:39PM 50.1747 -135.2644 287° West 466 536 38,000  Level FlightAware Transoceanic
05:40PM 50.2129 -135.4583 287° West 466 536 38,000  Level FlightAware Transoceanic
05:41PM 50.2621 -135.6593 287° West 467 537 38,000  Level FlightAware Transoceanic
05:42PM 50.2991 -135.8535 287° West 467 537 38,000  Level FlightAware Transoceanic
05:43PM 50.3358 -136.0481 286° West 467 537 38,000  Level FlightAware Transoceanic
05:44PM 50.3722 -136.2430 286° West 467 537 38,000 900 Level FlightAware Transoceanic
05:44PM 50.3500 -136.1667 286° West 464 534 39,000  Climbing Oakland Oceanic (ODAPS)
05:45PM 50.4082 -136.4382 286° West 467 537 38,000 -540 Descending FlightAware Transoceanic
05:46PM 50.4439 -136.6336 286° West 467 537 38,000  Level FlightAware Transoceanic
05:47PM 50.4793 -136.8294 286° West 467 537 38,000  Level FlightAware Transoceanic
05:48PM 50.5143 -137.0255 286° West 467 537 38,000  Level FlightAware Transoceanic
05:49PM 50.5491 -137.2218 285° West 467 537 38,000 480 Level FlightAware Transoceanic
05:50PM 50.5918 -137.4962 285° West 464 534 39,000 480 Climbing FlightAware Transoceanic
05:51PM 50.6251 -137.6872 285° West 464 534 39,000  Level FlightAware Transoceanic
05:52PM 50.6581 -137.8785 285° West 464 534 39,000  Level FlightAware Transoceanic
05:53PM 50.6907 -138.0701 285° West 464 534 39,000  Level FlightAware Transoceanic
05:54PM 50.7231 -138.2619 285° West 464 534 39,000  Level FlightAware Transoceanic
05:55PM 50.7551 -138.4540 285° West 464 534 39,000  Level FlightAware Transoceanic
05:56PM 50.7868 -138.6463 285° West 464 534 39,000  Level FlightAware Transoceanic
05:57PM 50.8182 -138.8390 284° West 464 534 39,000  Level FlightAware Transoceanic
05:57PM 50.8167 -138.8500 285° West 464 534 39,000  Level Oakland Oceanic (ODAPS)
05:58PM 50.8493 -139.0318 284° West 464 534 39,000  Level FlightAware Transoceanic
05:59PM 50.8801 -139.2250 284° West 464 534 39,000  Level FlightAware Transoceanic
06:00PM 50.9106 -139.4183 284° West 464 534 39,000  Level FlightAware Transoceanic
06:01PM 50.9407 -139.6120 284° West 464 534 39,000  Level FlightAware Transoceanic
06:02PM 50.9705 -139.8059 284° West 464 534 39,000  Level FlightAware Transoceanic
06:03PM 51.0000 -140.0000 292° West 464 534 39,000  Level FlightAware Transoceanic
06:03PM 51.0000 -140.0000 292° West 459 528 39,000  Level Oakland Oceanic (ODAPS)
06:04PM 51.0481 -140.1909 292° West 464 534 39,000  Level FlightAware Transoceanic
06:05PM 51.0959 -140.3822 292° West 464 534 39,000  Level FlightAware Transoceanic
06:06PM 51.1433 -140.5739 291° West 464 534 39,000  Level FlightAware Transoceanic
06:07PM 51.1904 -140.7659 291° West 464 534 39,000  Level FlightAware Transoceanic
06:08PM 51.2373 -140.9584 291° West 464 534 39,000  Level FlightAware Transoceanic
06:09PM 51.2783 -141.1286 291° West 459 528 39,000  Level FlightAware Transoceanic
06:10PM 51.3237 -141.3180 291° West 459 528 39,000  Level FlightAware Transoceanic
06:11PM 51.3687 -141.5077 291° West 459 528 39,000  Level FlightAware Transoceanic
06:11PM 51.3667 -141.5000 291° West 453 521 39,000  Level Oakland Oceanic (ODAPS)
06:12PM 51.4134 -141.6979 291° West 459 528 39,000  Level FlightAware Transoceanic
06:13PM 51.4578 -141.8884 290° West 459 528 39,000  Level FlightAware Transoceanic
06:14PM 51.5019 -142.0793 290° West 459 528 39,000  Level FlightAware Transoceanic
06:15PM 51.5457 -142.2706 290° West 459 528 39,000  Level FlightAware Transoceanic
06:16PM 51.5892 -142.4622 290° West 459 528 39,000  Level FlightAware Transoceanic
06:17PM 51.6323 -142.6542 290° West 459 528 39,000  Level FlightAware Transoceanic
06:18PM 51.6668 -142.8094 290° West 453 521 39,000  Level FlightAware Transoceanic
06:19PM 51.7084 -142.9978 290° West 453 521 39,000  Level FlightAware Transoceanic
06:20PM 51.7498 -143.1866 289° West 453 521 39,000  Level FlightAware Transoceanic
06:21PM 51.7909 -143.3757 289° West 453 521 39,000  Level FlightAware Transoceanic
06:22PM 51.8316 -143.5652 289° West 453 521 39,000  Level FlightAware Transoceanic
06:23PM 51.8721 -143.7551 289° West 453 521 39,000  Level FlightAware Transoceanic
06:24PM 51.9123 -143.9452 289° West 453 521 39,000  Level FlightAware Transoceanic
06:25PM 51.9521 -144.1357 289° West 453 521 39,000  Level FlightAware Transoceanic
06:25PM 51.9500 -144.1500 289° West 453 521 39,000  Level Oakland Oceanic (ODAPS)
06:26PM 51.9916 -144.3266 289° West 453 521 39,000  Level FlightAware Transoceanic
06:27PM 52.0309 -144.5177 288° West 453 521 39,000  Level FlightAware Transoceanic
06:28PM 52.0698 -144.7093 288° West 453 521 39,000  Level FlightAware Transoceanic
06:29PM 52.1084 -144.9011 288° West 453 521 39,000  Level FlightAware Transoceanic
06:30PM 52.1467 -145.0933 288° West 453 521 39,000  Level FlightAware Transoceanic
06:31PM 52.1847 -145.2858 288° West 453 521 39,000  Level FlightAware Transoceanic
06:32PM 52.2206 -145.4896 288° West 453 521 39,000  Level FlightAware Transoceanic
06:33PM 52.2580 -145.6823 288° West 453 521 39,000  Level FlightAware Transoceanic
06:34PM 52.2951 -145.8753 287° West 453 521 39,000  Level FlightAware Transoceanic
06:35PM 52.3319 -146.0686 287° West 453 521 39,000  Level FlightAware Transoceanic
06:36PM 52.3684 -146.2623 287° West 453 521 39,000  Level FlightAware Transoceanic
06:37PM 52.4045 -146.4563 287° West 453 521 39,000  Level FlightAware Transoceanic
06:38PM 52.4404 -146.6505 287° West 453 521 39,000  Level FlightAware Transoceanic
06:39PM 52.4759 -146.8452 287° West 453 521 39,000  Level FlightAware Transoceanic
06:39PM 52.4833 -146.8500 286° West 449 517 39,000  Level Oakland Oceanic (ODAPS)
06:40PM 52.5111 -147.0401 286° West 453 521 39,000  Level FlightAware Transoceanic
06:41PM 52.5460 -147.2353 286° West 453 521 39,000  Level FlightAware Transoceanic
06:42PM 52.5805 -147.4308 286° West 453 521 39,000  Level FlightAware Transoceanic
06:43PM 52.6147 -147.6267 286° West 453 521 39,000  Level FlightAware Transoceanic
06:44PM 52.6486 -147.8228 286° West 453 521 39,000  Level FlightAware Transoceanic
06:45PM 52.6869 -148.0224 285° West 449 517 39,000  Level FlightAware Transoceanic
06:46PM 52.7196 -148.2189 285° West 449 517 39,000  Level FlightAware Transoceanic
06:47PM 52.7521 -148.4157 285° West 449 517 39,000  Level FlightAware Transoceanic
06:48PM 52.7842 -148.6127 285° West 449 517 39,000  Level FlightAware Transoceanic
06:49PM 52.8161 -148.8100 285° West 449 517 39,000  Level FlightAware Transoceanic
06:50PM 52.8475 -149.0077 285° West 449 517 39,000  Level FlightAware Transoceanic
06:51PM 52.8787 -149.2056 285° West 449 517 39,000  Level FlightAware Transoceanic
06:52PM 52.9095 -149.4038 284° West 449 517 39,000  Level FlightAware Transoceanic
06:53PM 52.9400 -149.6022 284° West 449 517 39,000  Level FlightAware Transoceanic
06:53PM 52.9500 -149.6333 283° West 475 547 39,000  Level Oakland Oceanic (ODAPS)
06:54PM 52.9702 -149.8010 284° West 449 517 39,000  Level FlightAware Transoceanic
06:54PM 53.0000 -150.0000 293° West 471 542 39,000  Level Oakland Oceanic (ODAPS)
06:55PM 53.0000 -150.0000 293° West 449 517 39,000  Level FlightAware Transoceanic
06:56PM 53.0521 -150.2068 293° West 449 517 39,000  Level FlightAware Transoceanic
06:57PM 53.1038 -150.4141 292° West 449 517 39,000  Level FlightAware Transoceanic
06:58PM 53.1551 -150.6219 292° West 449 517 39,000  Level FlightAware Transoceanic
06:59PM 53.2061 -150.8302 292° West 475 547 39,000  Level FlightAware Transoceanic
07:00PM 53.2567 -151.0389 292° West 475 547 39,000  Level FlightAware Transoceanic
07:01PM 53.3005 -151.2215 292° West 471 542 39,000  Level FlightAware Transoceanic
07:02PM 53.3494 -151.4267 292° West 471 542 39,000  Level FlightAware Transoceanic
07:03PM 53.3979 -151.6324 291° West 471 542 39,000  Level FlightAware Transoceanic
07:04PM 53.4461 -151.8386 291° West 471 542 39,000  Level FlightAware Transoceanic
07:05PM 53.4939 -152.0452 291° West 471 542 39,000  Level FlightAware Transoceanic
07:06PM 53.5414 -152.2523 291° West 471 542 39,000  Level FlightAware Transoceanic
07:06PM 53.6000 -152.4833 291° West 482 555 39,000  Level Oakland Oceanic (ODAPS)
07:07PM 53.5884 -152.4599 291° West 471 542 39,000  Level FlightAware Transoceanic
07:08PM 53.6352 -152.6679 291° West 471 542 39,000  Level FlightAware Transoceanic
07:09PM 53.6815 -152.8764 290° West 471 542 39,000  Level FlightAware Transoceanic
07:10PM 53.7276 -153.0853 290° West 471 542 39,000  Level FlightAware Transoceanic
07:11PM 53.7732 -153.2947 290° West 471 542 39,000  Level FlightAware Transoceanic
07:12PM 53.8185 -153.5046 290° West 471 542 39,000  Level FlightAware Transoceanic
07:13PM 53.8806 -153.7718 290° West 482 555 39,000  Level FlightAware Transoceanic
07:14PM 53.9260 -153.9882 290° West 482 555 39,000  Level FlightAware Transoceanic
07:15PM 53.9710 -154.2051 289° West 482 555 39,000  Level FlightAware Transoceanic
07:16PM 54.0156 -154.4224 289° West 482 555 39,000  Level FlightAware Transoceanic
07:17PM 54.0599 -154.6402 289° West 482 555 39,000  Level FlightAware Transoceanic
07:18PM 54.1037 -154.8585 289° West 482 555 39,000  Level FlightAware Transoceanic
07:19PM 54.1472 -155.0772 289° West 482 555 39,000  Level FlightAware Transoceanic
07:20PM 54.1902 -155.2964 288° West 482 555 39,000  Level FlightAware Transoceanic
07:21PM 54.2329 -155.5160 288° West 482 555 39,000  Level FlightAware Transoceanic
07:21PM 54.2167 -155.4333 288° West 482 555 39,000  Level Oakland Oceanic (ODAPS)
07:22PM 54.2751 -155.7361 288° West 482 555 39,000  Level FlightAware Transoceanic
07:23PM 54.3170 -155.9567 288° West 482 555 39,000  Level FlightAware Transoceanic
07:24PM 54.3584 -156.1777 288° West 482 555 39,000  Level FlightAware Transoceanic
07:25PM 54.3995 -156.3991 288° West 482 555 39,000  Level FlightAware Transoceanic
07:26PM 54.4401 -156.6210 287° West 482 555 39,000  Level FlightAware Transoceanic
07:27PM 54.4696 -156.7847 287° West 482 555 39,000  Level FlightAware Transoceanic
07:28PM 54.5103 -157.0115 287° West 482 555 39,000  Level FlightAware Transoceanic
07:29PM 54.5506 -157.2388 287° West 482 555 39,000  Level FlightAware Transoceanic
07:30PM 54.5904 -157.4665 287° West 482 555 39,000  Level FlightAware Transoceanic
07:31PM 54.6298 -157.6947 287° West 482 555 39,000  Level FlightAware Transoceanic
07:32PM 54.6688 -157.9233 286° West 482 555 39,000  Level FlightAware Transoceanic
07:33PM 54.7073 -158.1523 286° West 482 555 39,000  Level FlightAware Transoceanic
07:34PM 54.7454 -158.3818 286° West 482 555 39,000  Level FlightAware Transoceanic
07:34PM 54.7833 -158.5833 285° West 480 552 39,000  Level Anchorage Center
07:35PM 54.7831 -158.6117 286° West 482 555 39,000  Level FlightAware Transoceanic
07:35PM 54.8167 -158.8000 285° West 480 552 39,000  Level Anchorage Center
07:36PM 54.8204 -158.8421 286° West 482 555 39,000  Level FlightAware Transoceanic
07:36PM 54.8667 -159.0167 292° West 470 541 39,000  Level Anchorage Center
07:37PM 54.8572 -159.0728 285° West 482 555 39,000  Level FlightAware Transoceanic
07:37PM 54.9000 -159.2500 284° West 480 552 39,000  Level Anchorage Center
07:38PM 54.8935 -159.3040 285° West 482 555 39,000  Level FlightAware Transoceanic
07:38PM 54.9333 -159.4667 285° West 470 541 39,000  Level Anchorage Center
07:39PM 54.9295 -159.5356 285° West 482 555 39,000  Level FlightAware Transoceanic
07:39PM 54.9667 -159.7000 284° West 470 541 39,000  Level Anchorage Center
07:40PM 54.9650 -159.7676 285° West 482 555 39,000  Level FlightAware Transoceanic
07:40PM 55.0000 -159.9167 285° West 480 552 39,000  Level Anchorage Center
07:41PM 55.0333 -160.1333 285° West 470 541 39,000  Level Anchorage Center
07:42PM 55.0667 -160.3667 284° West 480 552 39,000  Level Anchorage Center
07:44PM 55.1000 -160.6000 284° West 480 552 39,000  Level Anchorage Center
07:45PM 55.1333 -160.8333 284° West 470 541 39,000  Level Anchorage Center
07:46PM 55.1500 -161.0500 278° West 480 552 39,000  Level Anchorage Center
07:47PM 55.1833 -161.2833 284° West 480 552 39,000  Level Anchorage Center
07:48PM 55.2167 -161.5167 284° West 480 552 39,000  Level Anchorage Center
07:49PM 55.2500 -161.7500 284° West 480 552 39,000  Level Anchorage Center
07:50PM 55.2833 -161.9833 284° West 490 564 39,000  Level Anchorage Center
07:51PM 55.3000 -162.2167 277° West 500 575 39,000  Level Anchorage Center
07:52PM 55.3333 -162.4500 284° West 480 552 39,000  Level Anchorage Center
07:53PM 55.3667 -162.6667 285° West 470 541 39,000  Level Anchorage Center
07:54PM 55.3833 -162.9000 277° West 470 541 39,000  Level Anchorage Center
07:55PM 55.4167 -163.1333 284° West 480 552 39,000  Level Anchorage Center
07:56PM 55.4500 -163.4000 283° West 470 541 39,000  Level Anchorage Center
07:58PM 55.5000 -163.8167 282° West 480 552 39,000  Level Anchorage Center
07:59PM 55.5167 -164.0500 277° West 490 564 39,000  Level Anchorage Center
08:00PM 55.5500 -164.2833 284° West 480 552 39,000 300 Level Anchorage Center
08:01PM 55.5667 -164.5167 277° West 480 552 39,700 480 Climbing Anchorage Center
08:02PM 55.6000 -164.7500 284° West 480 552 40,000 120 Climbing Anchorage Center
08:03PM 55.6167 -164.9833 277° West 480 552 40,000  Level Anchorage Center
08:04PM 55.6333 -165.2167 277° West 480 552 40,000  Level Anchorage Center
08:05PM 55.6667 -165.4500 284° West 480 552 40,000  Level Anchorage Center
08:06PM 55.6833 -165.7000 277° West 480 552 40,000  Level Anchorage Center
08:07PM 55.7167 -165.9333 284° West 480 552 40,000  Level Anchorage Center
08:08PM 55.7333 -166.1667 277° West 480 552 40,000  Level Anchorage Center
08:09PM 55.7500 -166.4000 277° West 470 541 40,000  Level Anchorage Center
08:10PM 55.7667 -166.6333 277° West 480 552 40,000  Level Anchorage Center
08:11PM 55.8000 -166.8833 283° West 460 529 40,000  Level Anchorage Center
08:12PM 55.8167 -167.1167 277° West 470 541 40,000  Level Anchorage Center
08:13PM 55.8333 -167.3667 277° West 480 552 40,000  Level Anchorage Center
08:14PM 55.8500 -167.6000 277° West 470 541 40,000  Level Anchorage Center
08:15PM 55.8667 -167.8500 277° West 490 564 40,000  Level Anchorage Center
08:16PM 55.8833 -168.0833 277° West 480 552 40,000  Level Anchorage Center
08:17PM 55.9000 -168.3167 277° West 480 552 40,000  Level Anchorage Center
08:18PM 55.9167 -168.5667 277° West 490 564 40,000  Level Anchorage Center
08:19PM 55.9333 -168.8167 277° West 480 552 40,000  Level Anchorage Center
08:20PM 55.9500 -169.0500 277° West 490 564 40,000  Level Anchorage Center
08:21PM 55.9667 -169.3000 277° West 480 552 40,000  Level Anchorage Center
08:22PM 55.9833 -169.5500 277° West 490 564 40,000  Level Anchorage Center
08:23PM 56.0000 -169.7833 277° West 480 552 40,000  Level Anchorage Center
08:24PM 56.0000 -169.9833 270° West 480 552 40,000  Level Anchorage Center
08:25PM 56.0000 -170.2167 270° West 470 541 40,000  Level Anchorage Center
08:26PM 55.9833 -170.4500 263° West 470 541 40,000  Level Anchorage Center
08:27PM 55.9667 -170.7000 263° West 490 564 40,000  Level Anchorage Center
08:28PM 55.9500 -170.9333 263° West 470 541 40,000  Level Anchorage Center
08:29PM 55.9333 -171.1667 263° West 480 552 40,000  Level Anchorage Center
08:30PM 55.9167 -171.4167 263° West 470 541 40,000  Level Anchorage Center
08:31PM 55.9000 -171.6500 263° West 470 541 40,000  Level Anchorage Center
08:32PM 55.8833 -171.8833 263° West 470 541 40,000  Level Anchorage Center
08:33PM 55.8667 -172.1167 263° West 470 541 40,000  Level Anchorage Center
08:34PM 55.8500 -172.3500 263° West 470 541 40,000  Level Anchorage Center
08:35PM 55.8333 -172.5833 263° West 470 541 40,000  Level Anchorage Center
08:36PM 55.8167 -172.8167 263° West 470 541 40,000  Level Anchorage Center
08:37PM 55.7833 -173.0500 256° West 480 552 40,000  Level Anchorage Center
08:38PM 55.7667 -173.3000 263° West 480 552 40,000  Level Anchorage Center
08:39PM 55.7500 -173.5333 263° West 480 552 40,000  Level Anchorage Center
08:40PM 55.7333 -173.7667 263° West 470 541 40,000  Level Anchorage Center
08:41PM 55.7000 -174.0000 256° West 470 541 40,000  Level Anchorage Center
08:42PM 55.6833 -174.2333 263° West 470 541 40,000  Level Anchorage Center
08:43PM 55.6667 -174.4667 263° West 470 541 40,000  Level Anchorage Center
08:44PM 55.6500 -174.7000 263° West 470 541 40,000  Level Anchorage Center
08:45PM 55.6167 -174.9167 255° West 470 541 40,000  Level Anchorage Center
08:46PM 55.6000 -175.1500 263° West 470 541 40,000  Level Anchorage Center
08:47PM 55.5833 -175.3833 263° West 470 541 40,000  Level Anchorage Center
08:48PM 55.5500 -175.6167 256° West 470 541 40,000  Level Anchorage Center
08:49PM 55.5333 -175.8500 263° West 470 541 40,000  Level Anchorage Center
08:50PM 55.5000 -176.0667 255° West 480 552 40,000  Level Anchorage Center
08:51PM 55.4833 -176.3000 263° West 470 541 40,000  Level Anchorage Center
08:52PM 55.4500 -176.5333 256° West 470 541 40,000  Level Anchorage Center
08:53PM 55.4167 -176.7667 256° West 470 541 40,000  Level Anchorage Center
08:54PM 55.4000 -176.9833 262° West 470 541 40,000  Level Anchorage Center
08:57PM 55.3442 -177.3978 257° West  Level FlightAware Approximate
08:57PM 55.2833 -177.7833 259° West 479 551 40,000  Level Anchorage Center
09:01PM 55.2000 -178.5500 262° West 475 547 40,000  Level Anchorage Center
09:04PM 55.1473 -179.2059 262° West 479 551 40,000  Level FlightAware Transoceanic
09:05PM 55.1289 -179.4297 262° West 479 551 40,000  Level FlightAware Transoceanic
09:06PM 55.1101 -179.6533 262° West 479 551 40,000  Level FlightAware Transoceanic
09:07PM 55.0877 -179.9251 261° West 475 547 40,000  Level FlightAware Transoceanic
09:07PM 55.0833 -179.9667 261° West 475 547 40,000  Level Anchorage Center
09:08PM 55.0675 179.8465 261° West 475 547 40,000  Level FlightAware Transoceanic
09:09PM 55.0469 179.6183 261° West 475 547 40,000  Level FlightAware Transoceanic
09:10PM 55.0258 179.3904 261° West 475 547 40,000  Level FlightAware Transoceanic
09:11PM 55.0043 179.1627 261° West 475 547 40,000  Level FlightAware Transoceanic
09:12PM 54.9824 178.9353 260° West 475 547 40,000  Level FlightAware Transoceanic
09:13PM 54.9561 178.6743 260° West 475 547 40,000  Level FlightAware Transoceanic
09:14PM 54.9334 178.4486 260° West 475 547 40,000  Level FlightAware Transoceanic
09:15PM 54.9103 178.2233 260° West 475 547 40,000  Level FlightAware Transoceanic
09:16PM 54.8868 177.9981 260° West 475 547 40,000  Level FlightAware Transoceanic
09:16PM 54.9000 178.0333 259° West 480 552 40,000  Level Anchorage Center
09:17PM 54.8629 177.7733 259° West 475 547 40,000  Level FlightAware Transoceanic
09:17PM 54.8833 177.8333 262° West 470 541 40,000  Level Anchorage Center
09:18PM 54.8386 177.5486 259° West 475 547 40,000  Level FlightAware Transoceanic
09:18PM 54.8500 177.5833 257° West 470 541 40,000  Level Anchorage Center
09:19PM 54.8138 177.3243 259° West 475 547 40,000  Level FlightAware Transoceanic
09:19PM 54.8167 177.3500 256° West 470 541 40,000  Level Anchorage Center
09:20PM 54.7886 177.1003 259° West 475 547 40,000  Level FlightAware Transoceanic
09:20PM 54.8000 177.1500 262° West 470 541 40,000  Level Anchorage Center
09:21PM 54.7631 176.8765 259° West 475 547 40,000  Level FlightAware Transoceanic
09:21PM 54.7667 176.9000 257° West 470 541 40,000  Level Anchorage Center
09:22PM 54.7500 176.7167 261° West 470 541 40,000  Level Anchorage Center
09:23PM 54.7167 176.4667 257° West 470 541 40,000  Level Anchorage Center
09:24PM 54.7000 176.2667 262° West 480 552 40,000  Level Anchorage Center
09:25PM 54.6667 176.0333 256° West 470 541 40,000  Level Anchorage Center
09:26PM 54.6333 175.7833 257° West 470 541 40,000  Level Anchorage Center
09:27PM 54.6167 175.6000 261° West 470 541 40,000  Level Anchorage Center
09:28PM 54.5833 175.3500 257° West 470 541 40,000  Level Anchorage Center
09:29PM 54.5667 175.1667 261° West 470 541 40,000  Level Anchorage Center
09:30PM 54.5333 174.9167 257° West 470 541 40,000  Level Anchorage Center
09:31PM 54.5000 174.7333 253° West 470 541 40,000  Level Anchorage Center
09:32PM 54.4667 174.5000 256° West 470 541 40,000  Level Anchorage Center
09:33PM 54.4500 174.3000 262° West 470 541 40,000  Level Anchorage Center
09:34PM 54.4167 174.0667 256° West 470 541 40,000  Level Anchorage Center
09:35PM 54.3833 173.8167 257° West 470 541 40,000 300 Level Anchorage Center
09:36PM 54.3500 173.6333 253° West 480 552 40,700 480 Climbing Anchorage Center
09:37PM 54.3167 173.3833 257° West 480 552 41,000 120 Climbing Anchorage Center
09:38PM 54.3000 173.2000 261° West 470 541 41,000  Level Anchorage Center
09:39PM 54.2500 172.9667 250° West 470 541 41,000  Level Anchorage Center
09:40PM 54.2333 172.7833 261° West 470 541 41,000  Level Anchorage Center
09:41PM 54.1833 172.5667 249° West 440 506 41,000  Level Anchorage Center
09:42PM 54.1000 172.3833 232° Southwest 470 541 41,000  Level Anchorage Center
09:43PM 54.0333 172.2167 236° Southwest 470 541 41,000  Level Anchorage Center
09:44PM 53.9500 172.0167 235° Southwest 480 552 41,000  Level Anchorage Center
09:45PM 53.8833 171.8667 233° Southwest 470 541 41,000  Level Anchorage Center
09:46PM 53.8000 171.6667 235° Southwest 470 541 41,000  Level Anchorage Center
09:47PM 53.7333 171.5000 236° Southwest 470 541 41,000  Level Anchorage Center
09:48PM 53.6500 171.3000 235° Southwest 480 552 41,000  Level Anchorage Center
09:49PM 53.5667 171.1167 233° Southwest 470 541 41,000  Level Anchorage Center
09:50PM 53.5000 170.9667 233° Southwest 460 529 41,000  Level Anchorage Center
09:51PM 53.4167 170.7667 235° Southwest 470 541 41,000  Level Anchorage Center
09:52PM 53.3500 170.6167 233° Southwest 480 552 41,000  Level Anchorage Center
09:53PM 53.2667 170.4333 233° Southwest 470 541 41,000  Level Anchorage Center
09:54PM 53.1833 170.2667 230° Southwest 470 541 41,000  Level Anchorage Center
09:55PM 53.1000 170.0833 233° Southwest 480 552 41,000  Level Anchorage Center
09:56PM 53.0167 169.9000 233° Southwest 470 541 41,000  Level Anchorage Center
09:57PM 52.9500 169.7333 236° Southwest 480 552 41,000  Level Anchorage Center
09:58PM 52.8833 169.5333 241° Southwest 470 541 41,000  Level Anchorage Center
09:59PM 52.8333 169.3667 244° Southwest 460 529 41,000  Level Anchorage Center
10:00PM 52.7667 169.1667 241° Southwest 470 541 41,000  Level Anchorage Center
10:01PM 52.7167 169.0000 244° Southwest 450 518 41,000  Level Anchorage Center
10:02PM 52.6333 168.8000 236° Southwest 460 529 41,000  Level Anchorage Center
10:03PM 52.5833 168.6500 241° Southwest 450 518 41,000  Level Anchorage Center
10:04PM 52.5167 168.4500 241° Southwest 470 541 41,000  Level Anchorage Center
10:05PM 52.4500 168.2500 241° Southwest 450 518 41,000  Level Anchorage Center
10:06PM 52.4000 168.1000 241° Southwest 470 541 41,000  Level Anchorage Center
10:07PM 52.3167 167.9000 236° Southwest 460 529 41,000  Level Anchorage Center
10:09PM 52.2000 167.5500 242° Southwest 470 541 41,000  Level Anchorage Center
10:10PM 52.1333 167.4000 234° Southwest 460 529 41,000  Level Anchorage Center
10:12PM 52.0125 167.0786 239° Southwest  Level FlightAware Approximate
10:14PM 51.8500 166.6333 239° Southwest 457 526 41,000  Level Anchorage Center
10:19PM 51.5476 165.8783 238° Southwest  Level FlightAware Approximate
10:20PM 51.4570 165.6147 238° Southwest 457 526 41,000  Level FlightAware Transoceanic
10:20PM 51.4333 165.5500 238° Southwest 456 525 41,000  Level Anchorage Center
10:21PM 51.3906 165.4467 238° Southwest 457 526 41,000  Level FlightAware Transoceanic
10:22PM 51.3240 165.2791 237° Southwest 457 526 41,000  Level FlightAware Transoceanic
10:23PM 51.2572 165.1120 237° Southwest 457 526 41,000  Level FlightAware Transoceanic
10:24PM 51.1901 164.9454 237° Southwest 457 526 41,000  Level FlightAware Transoceanic
10:24PM 51.2000 164.9833 237° Southwest 453 521 41,000  Level Anchorage Center
10:25PM 51.1228 164.7793 237° Southwest 457 526 41,000  Level FlightAware Transoceanic
10:26PM 51.0923 164.7005 237° Southwest 456 525 41,000  Level FlightAware Transoceanic
10:27PM 51.0234 164.5321 237° Southwest 456 525 41,000  Level FlightAware Transoceanic
10:27PM 50.9500 164.3833 237° Southwest 452 520 41,000  Level Anchorage Center
10:28PM 50.9542 164.3642 237° Southwest 456 525 41,000  Level FlightAware Transoceanic
10:29PM 50.8848 164.1969 237° Southwest 456 525 41,000  Level FlightAware Transoceanic
10:30PM 50.7910 163.9862 237° Southwest 453 521 41,000  Level FlightAware Transoceanic
10:31PM 50.7220 163.8217 236° Southwest 453 521 41,000  Level FlightAware Transoceanic
10:32PM 50.6528 163.6577 236° Southwest 453 521 41,000  Level FlightAware Transoceanic
10:33PM 50.5834 163.4941 236° Southwest 453 521 41,000  Level FlightAware Transoceanic
10:33PM 50.5500 163.4000 236° Southwest 452 520 41,000  Level Anchorage Center
10:34PM 50.4781 163.2583 236° Southwest 452 520 41,000  Level FlightAware Transoceanic
10:35PM 50.4098 163.0994 236° Southwest 452 520 41,000  Level FlightAware Transoceanic
10:36PM 50.3412 162.9410 236° Southwest 452 520 41,000  Level FlightAware Transoceanic
10:37PM 50.2725 162.7830 236° Southwest 452 520 41,000  Level FlightAware Transoceanic
10:38PM 50.2036 162.6255 236° Southwest 452 520 41,000  Level FlightAware Transoceanic
10:39PM 50.1344 162.4685 235° Southwest 452 520 41,000  Level FlightAware Transoceanic
10:40PM 50.0676 162.2999 235° Southwest 452 520 41,000  Level FlightAware Transoceanic
10:41PM 49.9978 162.1446 235° Southwest 452 520 41,000  Level FlightAware Transoceanic
10:42PM 49.9279 161.9897 235° Southwest 452 520 41,000  Level FlightAware Transoceanic
10:43PM 49.8577 161.8353 235° Southwest 452 520 41,000  Level FlightAware Transoceanic
10:43PM 49.8667 161.8500 235° Southwest 451 519 41,000  Level Anchorage Center
10:44PM 49.7873 161.6813 235° Southwest 452 520 41,000  Level FlightAware Transoceanic
10:45PM 49.7167 161.5277 235° Southwest 452 520 41,000  Level FlightAware Transoceanic
10:46PM 49.6460 161.3746 234° Southwest 452 520 41,000  Level FlightAware Transoceanic
10:47PM 49.5750 161.2220 234° Southwest 452 520 41,000  Level FlightAware Transoceanic
10:48PM 49.5038 161.0698 234° Southwest 452 520 41,000  Level FlightAware Transoceanic
10:48PM 49.4833 161.0333 234° Southwest 452 520 41,000  Level Anchorage Center
10:49PM 49.4370 160.9252 234° Southwest 451 519 41,000  Level FlightAware Transoceanic
10:50PM 49.3646 160.7727 234° Southwest 451 519 41,000  Level FlightAware Transoceanic
10:51PM 49.2921 160.6206 234° Southwest 451 519 41,000  Level FlightAware Transoceanic
10:52PM 49.2194 160.4689 234° Southwest 451 519 41,000  Level FlightAware Transoceanic
10:53PM 49.1464 160.3177 234° Southwest 451 519 41,000  Level FlightAware Transoceanic
10:54PM 49.0696 160.1607 234° Southwest 452 520 41,000  Level FlightAware Transoceanic
10:55PM 49.0000 160.0167 233° Southwest 452 520 41,000  Level FlightAware Transoceanic
10:56PM 48.9269 159.8675 233° Southwest 452 520 41,000  Level FlightAware Transoceanic
10:57PM 48.8535 159.7187 233° Southwest 452 520 41,000  Level FlightAware Transoceanic
10:58PM 48.7800 159.5704 233° Southwest 452 520 41,000  Level FlightAware Transoceanic
10:59PM 48.7063 159.4225 233° Southwest 452 520 41,000  Level FlightAware Transoceanic
11:00PM 48.6324 159.2751 233° Southwest 452 520 41,000  Level FlightAware Transoceanic
11:01PM 48.5583 159.1280 233° Southwest 452 520 41,000  Level FlightAware Transoceanic
11:02PM 48.4841 158.9815 233° Southwest 452 520 41,000  Level FlightAware Transoceanic
11:03PM 48.4096 158.8353 232° Southwest 452 520 41,000  Level FlightAware Transoceanic
11:04PM 48.3350 158.6896 232° Southwest 452 520 41,000  Level FlightAware Transoceanic
11:05PM 48.2602 158.5443 232° Southwest 452 520 41,000  Level FlightAware Transoceanic
11:06PM 48.1852 158.3994 232° Southwest 452 520 41,000  Level FlightAware Transoceanic
11:07PM 48.1100 158.2549 232° Southwest 452 520 41,000  Level FlightAware Transoceanic
11:08PM 48.0346 158.1109 232° Southwest 452 520 41,000  Level FlightAware Transoceanic
11:09PM 47.9590 157.9673 232° Southwest 452 520 41,000  Level FlightAware Transoceanic
11:10PM 47.8833 157.8241 232° Southwest 452 520 41,000  Level FlightAware Transoceanic
11:11PM 47.8074 157.6813 232° Southwest 452 520 41,000  Level FlightAware Transoceanic
11:12PM 47.7313 157.5390 231° Southwest 452 520 41,000  Level FlightAware Transoceanic
11:13PM 47.6551 157.3970 231° Southwest 452 520 41,000  Level FlightAware Transoceanic
11:14PM 47.5787 157.2555 231° Southwest 452 520 41,000  Level FlightAware Transoceanic
11:15PM 47.5021 157.1144 231° Southwest 452 520 41,000  Level FlightAware Transoceanic
11:16PM 47.4253 156.9737 231° Southwest 452 520 41,000  Level FlightAware Transoceanic
11:17PM 47.3483 156.8334 231° Southwest 452 520 41,000  Level FlightAware Transoceanic
11:18PM 47.2712 156.6935 231° Southwest 452 520 41,000  Level FlightAware Transoceanic
11:19PM 47.1939 156.5540 231° Southwest 452 520 41,000  Level FlightAware Transoceanic
11:20PM 47.1165 156.4149 231° Southwest 452 520 41,000  Level FlightAware Transoceanic
11:21PM 47.0388 156.2763 231° Southwest 452 520 41,000  Level FlightAware Transoceanic
11:22PM 46.9611 156.1380 230° Southwest 452 520 41,000  Level FlightAware Transoceanic
11:23PM 46.8831 156.0002 230° Southwest 452 520 41,000  Level FlightAware Transoceanic
11:24PM 46.8050 155.8627 230° Southwest 452 520 41,000  Level FlightAware Transoceanic
11:25PM 46.7267 155.7256 230° Southwest 452 520 41,000  Level FlightAware Transoceanic
11:26PM 46.6483 155.5890 230° Southwest 452 520 41,000  Level FlightAware Transoceanic
11:27PM 46.5696 155.4527 230° Southwest 452 520 41,000  Level FlightAware Transoceanic
11:28PM 46.4909 155.3168 230° Southwest 452 520 41,000  Level FlightAware Transoceanic
11:29PM 46.4119 155.1814 230° Southwest 452 520 41,000  Level FlightAware Transoceanic
11:30PM 46.3328 155.0463 230° Southwest 452 520 41,000  Level FlightAware Transoceanic
11:31PM 46.2536 154.9116 230° Southwest 452 520 41,000  Level FlightAware Transoceanic
11:32PM 46.1742 154.7773 229° Southwest 452 520 41,000  Level FlightAware Transoceanic
11:33PM 46.0946 154.6434 229° Southwest 452 520 41,000  Level FlightAware Transoceanic
11:34PM 46.0149 154.5098 229° Southwest 452 520 41,000  Level FlightAware Transoceanic
11:35PM 45.9350 154.3767 229° Southwest 452 520 41,000  Level FlightAware Transoceanic
11:36PM 45.8550 154.2439 229° Southwest 452 520 41,000  Level FlightAware Transoceanic
11:37PM 45.7748 154.1115 229° Southwest 452 520 41,000  Level FlightAware Transoceanic
11:38PM 45.6945 153.9795 229° Southwest 452 520 41,000  Level FlightAware Transoceanic
11:39PM 45.6140 153.8479 229° Southwest 452 520 41,000  Level FlightAware Transoceanic
11:40PM 45.5223 153.7242 223° Southwest  Level FlightAware Approximate
11:41PM 45.4305 153.6010 223° Southwest  Level FlightAware Approximate
11:42PM 45.4351 153.5859 228° Southwest  Level FlightAware Approximate
11:43PM 45.3511 153.4519 228° Southwest  Level FlightAware Approximate
11:44PM 45.2670 153.3184 228° Southwest  Level FlightAware Approximate
11:45PM 45.1827 153.1852 228° Southwest  Level FlightAware Approximate
11:46PM 45.0983 153.0525 228° Southwest  Level FlightAware Approximate
11:47PM 45.0137 152.9201 228° Southwest  Level FlightAware Approximate
11:48PM 44.9290 152.7882 228° Southwest  Level FlightAware Approximate
11:49PM 44.8441 152.6566 228° Southwest  Level FlightAware Approximate
11:50PM 44.7590 152.5254 228° Southwest  Level FlightAware Approximate
11:51PM 44.6739 152.3946 228° Southwest  Level FlightAware Approximate
11:52PM 44.5885 152.2641 227° Southwest  Level FlightAware Approximate
11:53PM 44.5030 152.1341 227° Southwest  Level FlightAware Approximate
11:54PM 44.4174 152.0045 227° Southwest  Level FlightAware Approximate
11:55PM 44.3316 151.8752 227° Southwest  Level FlightAware Approximate
11:56PM 44.2457 151.7463 227° Southwest  Level FlightAware Approximate
11:57PM 44.1596 151.6177 227° Southwest  Level FlightAware Approximate
11:58PM 44.0734 151.4896 227° Southwest  Level FlightAware Approximate
11:59PM 43.9871 151.3618 227° Southwest  Level FlightAware Approximate
12:00AM 43.9006 151.2344 227° Southwest  Level FlightAware Approximate
12:01AM 43.8139 151.1074 227° Southwest  Level FlightAware Approximate
12:02AM 43.7272 150.9807 227° Southwest  Level FlightAware Approximate
12:03AM 43.6414 150.8560 226° Southwest  Level FlightAware Approximate
12:04AM 43.5555 150.7318 226° Southwest  Level FlightAware Approximate
12:05AM 43.4694 150.6078 226° Southwest  Level FlightAware Approximate
12:06AM 43.3833 150.4842 226° Southwest  Level FlightAware Approximate
12:07AM 43.2970 150.3610 226° Southwest  Level FlightAware Approximate
12:08AM 43.2105 150.2381 226° Southwest  Level FlightAware Approximate
12:09AM 43.1239 150.1156 226° Southwest  Level FlightAware Approximate
12:10AM 43.0372 149.9934 226° Southwest  Level FlightAware Approximate
12:11AM 42.9504 149.8715 226° Southwest  Level FlightAware Approximate
12:12AM 42.8634 149.7500 226° Southwest  Level FlightAware Approximate
12:13AM 42.7764 149.6289 226° Southwest  Level FlightAware Approximate
12:13AM 42.8990 149.7570 226° Southwest 396 456 41,000  Level FlightAware
12:13AM 42.8310 149.6620 226° Southwest 398 458 41,000  Level FlightAware
12:14AM 42.6891 149.5081 226° Southwest  Level FlightAware Approximate
12:14AM 42.7670 149.5730 226° Southwest 392 451 41,000  Level FlightAware
12:15AM 42.6860 149.4620 225° Southwest 396 456 41,000  Level FlightAware
12:16AM 42.6180 149.3670 226° Southwest 394 453 41,000  Level FlightAware
12:17AM 42.5890 149.3290 224° Southwest 394 453 41,000  Level FlightAware
12:17AM 42.5500 149.2750 226° Southwest 394 453 41,000  Level FlightAware
12:18AM 42.4900 149.1930 225° Southwest 394 453 41,000  Level FlightAware
12:19AM 42.4120 149.0870 225° Southwest 378 435 41,000  Level FlightAware
12:19AM 42.3850 149.0490 226° Southwest 378 435 41,000  Level FlightAware
12:20AM 42.3320 148.9780 225° Southwest 385 443 41,000  Level FlightAware
12:21AM 42.2370 148.8500 225° Southwest 384 442 41,000  Level FlightAware
12:22AM 42.1670 148.7550 225° Southwest 385 443 41,000  Level FlightAware
12:23AM 42.1000 148.6640 225° Southwest 386 444 41,000  Level FlightAware
12:24AM 42.0530 148.6020 224° Southwest 385 443 41,000  Level FlightAware
12:24AM 41.9930 148.5220 225° Southwest 384 442 41,000  Level FlightAware
12:26AM 41.8900 148.3850 225° Southwest 382 440 41,000  Level FlightAware
12:27AM 41.8220 148.2950 225° Southwest 374 430 41,000  Level FlightAware
12:27AM 41.7790 148.2380 225° Southwest 374 430 41,000  Level FlightAware
12:28AM 41.7460 148.1940 225° Southwest 374 430 41,000  Level FlightAware
12:28AM 41.6950 148.1280 224° Southwest 380 437 41,000  Level FlightAware
12:29AM 41.6190 148.0320 223° Southwest 381 438 41,000  Level FlightAware
12:30AM 41.5760 147.9770 224° Southwest 381 438 41,000  Level FlightAware
12:30AM 41.5310 147.9190 224° Southwest 382 440 41,000  Level FlightAware
12:31AM 41.4720 147.8440 224° Southwest 381 438 41,000  Level FlightAware
12:32AM 41.4150 147.7720 223° Southwest 379 436 41,000  Level FlightAware
12:33AM 41.3520 147.6920 224° Southwest 378 435 41,000  Level FlightAware
12:33AM 41.3130 147.6430 223° Southwest 379 436 41,000  Level FlightAware
12:34AM 41.2390 147.5490 224° Southwest 383 441 41,000  Level FlightAware
12:35AM 41.1790 147.4740 223° Southwest 379 436 41,000  Level FlightAware
12:36AM 41.1350 147.4190 223° Southwest 381 438 41,000  Level FlightAware
12:36AM 41.0960 147.3700 223° Southwest 381 438 41,000  Level FlightAware
12:37AM 41.0430 147.3040 223° Southwest 383 441 41,000  Level FlightAware
12:37AM 40.9990 147.2490 223° Southwest 386 444 41,000  Level FlightAware
12:38AM 40.9500 147.1880 223° Southwest 386 444 41,000  Level FlightAware
12:39AM 40.8900 147.1140 223° Southwest 394 453 41,000  Level FlightAware
12:40AM 40.8270 147.0360 223° Southwest 394 453 41,000  Level FlightAware
12:40AM 40.7770 146.9750 223° Southwest 393 452 41,000  Level FlightAware
12:41AM 40.7310 146.9170 224° Southwest 393 452 41,000  Level FlightAware
12:42AM 40.6640 146.8360 223° Southwest 395 455 41,000  Level FlightAware
12:42AM 40.5930 146.7480 223° Southwest 396 456 41,000  Level FlightAware
12:43AM 40.5270 146.6670 223° Southwest 395 455 41,000  Level FlightAware
12:44AM 40.4510 146.5750 223° Southwest 397 457 41,000  Level FlightAware
12:45AM 40.3960 146.5080 223° Southwest 397 457 41,000  Level FlightAware
12:46AM 40.3150 146.4110 222° Southwest 394 453 41,000  Level FlightAware
12:47AM 40.2440 146.3240 223° Southwest 393 452 41,000  Level FlightAware
12:47AM 40.2020 146.2740 222° Southwest 392 451 41,000  Level FlightAware
12:48AM 40.1610 146.2250 222° Southwest 392 451 41,000  Level FlightAware
12:48AM 40.1220 146.1780 223° Southwest 393 452 41,000  Level FlightAware
12:49AM 40.0410 146.0810 223° Southwest 392 451 41,000  Level FlightAware
12:50AM 40.0030 146.0360 222° Southwest 392 451 41,000  Level FlightAware
12:50AM 39.9480 145.9700 223° Southwest 391 450 41,000  Level FlightAware
12:51AM 39.9140 145.9300 222° Southwest 390 449 41,000  Level FlightAware
12:52AM 39.8510 145.8550 222° Southwest 388 447 41,000  Level FlightAware
12:52AM 39.8250 145.8240 222° Southwest 382 440 41,000  Level FlightAware
12:53AM 39.7710 145.7590 223° Southwest 382 440 41,000  Level FlightAware
12:54AM 39.7180 145.6950 223° Southwest 382 440 41,000  Level FlightAware
12:54AM 39.6790 145.6470 223° Southwest 382 440 41,000  Level FlightAware
12:55AM 39.6390 145.5990 223° Southwest 382 440 41,000  Level FlightAware
12:56AM 39.5590 145.5020 223° Southwest 382 440 41,000  Level FlightAware
12:57AM 39.5060 145.4380 223° Southwest 382 440 41,000  Level FlightAware
12:57AM 39.4670 145.3910 223° Southwest 382 440 41,000  Level FlightAware
12:58AM 39.4010 145.3110 223° Southwest 382 440 41,000  Level FlightAware
12:59AM 39.3350 145.2320 223° Southwest 382 440 41,000  Level FlightAware
01:00AM 39.2820 145.1680 223° Southwest 382 440 41,000  Level FlightAware
01:01AM 39.2290 145.1040 223° Southwest 382 440 41,000  Level FlightAware
01:02AM 39.1900 145.0570 223° Southwest 382 440 41,000  Level FlightAware
01:05AM 38.9187 144.7733 219° Southwest  Level FlightAware Approximate
01:06AM 38.8230 144.6738 219° Southwest  Level FlightAware Approximate
01:07AM 38.7294 144.5698 222° Southwest  Level FlightAware Approximate
01:08AM 38.6371 144.4652 222° Southwest  Level FlightAware Approximate
01:09AM 38.5448 144.3609 221° Southwest  Level FlightAware Approximate
01:10AM 38.4524 144.2569 221° Southwest  Level FlightAware Approximate
01:11AM 38.3598 144.1532 221° Southwest  Level FlightAware Approximate
01:12AM 38.2672 144.0497 221° Southwest  Level FlightAware Approximate
01:13AM 38.1745 143.9465 221° Southwest  Level FlightAware Approximate
01:14AM 38.0817 143.8436 221° Southwest  Level FlightAware Approximate
01:15AM 37.9888 143.7409 221° Southwest  Level FlightAware Approximate
01:16AM 37.8958 143.6385 221° Southwest  Level FlightAware Approximate
01:17AM 37.8027 143.5363 221° Southwest  Level FlightAware Approximate
01:18AM 37.6985 143.4534 212° Southwest  Level FlightAware Approximate
01:19AM 37.5939 143.3712 212° Southwest  Level FlightAware Approximate
01:20AM 37.4892 143.2893 212° Southwest  Level FlightAware Approximate
01:21AM 37.3845 143.2077 212° Southwest  Level FlightAware Approximate
01:22AM 37.2797 143.1262 212° Southwest  Level FlightAware Approximate
01:22AM 37.1810 143.2720 212° Southwest 411 473 41,000  Level FlightAware
01:23AM 37.1490 143.2440 215° Southwest 411 473 41,000  Level FlightAware
01:23AM 37.1020 143.2020 215° Southwest 411 473 41,000  Level FlightAware
01:24AM 37.0540 143.1610 214° Southwest 411 473 41,000  Level FlightAware
01:25AM 36.9900 143.1050 215° Southwest 411 473 41,000  Level FlightAware
01:26AM 36.9110 143.0350 215° Southwest 411 473 41,000  Level FlightAware
01:26AM 36.8310 142.9410 223° Southwest 560 644 41,000 -240 Level FlightAware
01:29AM 36.6944 142.6022 212° Southwest  Level Estimated
01:30AM 36.5795 142.5469 201° Southwest  Level FlightAware Approximate
01:30AM 36.4780 142.6060 201° Southwest 404 465 40,100  Level FlightAware
01:31AM 36.3900 142.5230 217° Southwest 405 466 37,900 -2,400 Descending FlightAware
01:32AM 36.3140 142.4510 217° Southwest 411 473 35,800 -2,880 Descending FlightAware
01:33AM 36.2350 142.3780 217° Southwest 422 486 33,100 -3,000 Descending FlightAware
01:33AM 36.1790 142.3250 217° Southwest 439 505 31,300 -2,760 Descending FlightAware
01:34AM 36.1170 142.2670 217° Southwest 441 507 29,700 -2,580 Descending FlightAware
01:34AM 36.0920 142.2440 217° Southwest 439 505 29,100 -1,800 Descending FlightAware
01:35AM 35.9740 142.1340 217° Southwest 430 495 27,000 -2,580 Descending FlightAware
01:36AM 35.8990 142.0640 217° Southwest 420 483 24,000 -3,120 Descending FlightAware
01:37AM 35.8200 141.9910 217° Southwest 404 465 21,900 -2,400 Descending FlightAware
01:38AM 35.7720 141.9480 216° Southwest 406 467 20,700 -2,460 Descending FlightAware
01:38AM 35.7250 141.9040 217° Southwest 398 458 19,400 -2,280 Descending FlightAware
01:39AM 35.6570 141.8410 217° Southwest 386 444 17,700 -2,040 Descending FlightAware
01:39AM 35.6290 141.7990 231° Southwest 386 444 16,900 -1,380 Descending FlightAware
01:40AM 35.6380 141.6700 275° West 376 433 15,700 -1,140 Descending FlightAware
01:41AM 35.6620 141.5800 288° West 375 432 15,000 -1,020 Descending FlightAware
01:42AM 35.6820 141.5060 288° West 372 428 14,400 -900 Descending FlightAware
01:42AM 35.6970 141.4470 287° West 371 427 14,000 -960 Descending FlightAware
01:43AM 35.7180 141.3660 288° West 368 423 13,400 -1,200 Descending FlightAware
01:43AM 35.7270 141.3160 283° West 363 418 12,700 -1,860 Descending FlightAware
01:44AM 35.7000 141.2070 253° West 356 410 10,800 -1,860 Descending FlightAware
01:45AM 35.6800 141.1470 248° West 346 398 9,900 -900 Descending FlightAware
01:45AM 35.6620 141.0930 248° West 309 356 9,900 -360 Level FlightAware
01:46AM 35.6400 141.0290 247° West 272 313 9,500 -900 Descending FlightAware
01:47AM 35.6240 140.9800 248° West 264 304 8,800 -1,500 Descending FlightAware
01:47AM 35.6100 140.9360 249° West 262 302 7,900 -1,620 Descending FlightAware
01:48AM 35.5970 140.8980 247° West 259 298 7,200 -1,320 Descending FlightAware
01:48AM 35.5770 140.8360 248° West 248 285 6,300 -1,260 Descending FlightAware
01:49AM 35.5650 140.7930 251° West 249 287 5,500 -1,260 Descending FlightAware
01:50AM 35.5470 140.7340 249° West 248 285 4,700 -1,200 Descending FlightAware
01:50AM 35.5400 140.7090 251° West 247 284 4,300 -1,020 Descending FlightAware
01:51AM 35.5230 140.6540 249° West 243 280 3,700 -480 Descending FlightAware
01:51AM 35.5090 140.6050 251° West 240 276 3,700 60 Level FlightAware
01:52AM 35.5190 140.5520 283° West 202 232 3,800  Climbing FlightAware
01:53AM 35.5450 140.5330 329° Northwest 179 206 3,700  Descending FlightAware
01:53AM 35.5700 140.5150 330° Northwest 165 190 3,800 -420 Climbing FlightAware
01:54AM 35.5960 140.4970 331° Northwest 165 190 3,200 -960 Descending FlightAware
01:54AM 35.6130 140.4840 328° Northwest 162 186 2,800 -900 Descending FlightAware
01:55AM 35.6370 140.4680 332° Northwest 157 181 2,300 -900 Descending FlightAware
01:56AM 35.6660 140.4460 328° Northwest 151 174 1,600 -840 Descending FlightAware
01:56AM 35.6850 140.4330 331° Northwest 139 160 1,200 -720 Descending FlightAware
01:57AM 35.7070 140.4170 329° Northwest 136 157 700 -780 Descending FlightAware
01:58AM 35.7290 140.4010 329° Northwest 132 152 200 -780 Descending FlightAware
01:58AM 35.7380 140.3950 332° Northwest 138 159 -840 Descending FlightAware
01:58AM 35.7500 140.3860 329° Northwest 138 159  Level FlightAware